<?xml version="1.0" encoding="UTF-8" standalone="no" ?>
<gpx xmlns="http://www.topografix.com/GPX/1/1" xmlns:xsi="http://www.w3.org/2001/XMLSchema-instance" xsi:schemaLocation="http://www.topografix.com/GPX/1/1 http://www.topografix.com/GPX/1/1/gpx.xsd" version="1.1" creator="VisuGPX - https://www.visugpx.com">
  <metadata>
    <name>Massoulès 8.6 km 2025 04 10</name>
  </metadata>
  <trk>
    <name><![CDATA[Massoulès 8.6 km 2025 04 10]]></name>
    <extensions>
      <line xmlns="http://www.topografix.com/GPX/gpx_style/0/2">
        <color>0000FF</color>
        <width>4</width>
      </line>
    </extensions>
    <trkseg>
      <trkpt lat="44.33901" lon="0.86862">
        <ele>215</ele>
        <time>2025-04-10T12:13:15.000Z</time>
      </trkpt>
      <trkpt lat="44.33905" lon="0.86869">
        <ele>215.2</ele>
        <time>2025-04-10T12:13:16.000Z</time>
      </trkpt>
      <trkpt lat="44.33899" lon="0.86856">
        <ele>214.9</ele>
        <time>2025-04-10T12:13:52.000Z</time>
      </trkpt>
      <trkpt lat="44.33898" lon="0.86844">
        <ele>214.6</ele>
        <time>2025-04-10T12:14:00.000Z</time>
      </trkpt>
      <trkpt lat="44.339" lon="0.86831">
        <ele>214.3</ele>
        <time>2025-04-10T12:14:10.000Z</time>
      </trkpt>
      <trkpt lat="44.33904" lon="0.86818">
        <ele>214.3</ele>
        <time>2025-04-10T12:14:20.000Z</time>
      </trkpt>
      <trkpt lat="44.33907" lon="0.86805">
        <ele>214.3</ele>
        <time>2025-04-10T12:14:28.000Z</time>
      </trkpt>
      <trkpt lat="44.33911" lon="0.86792">
        <ele>214</ele>
        <time>2025-04-10T12:14:36.000Z</time>
      </trkpt>
      <trkpt lat="44.33915" lon="0.86779">
        <ele>213.8</ele>
        <time>2025-04-10T12:14:44.000Z</time>
      </trkpt>
      <trkpt lat="44.33919" lon="0.86768">
        <ele>213.7</ele>
        <time>2025-04-10T12:14:52.000Z</time>
      </trkpt>
      <trkpt lat="44.33922" lon="0.86755">
        <ele>213.4</ele>
        <time>2025-04-10T12:15:02.000Z</time>
      </trkpt>
      <trkpt lat="44.33924" lon="0.86742">
        <ele>213.1</ele>
        <time>2025-04-10T12:15:12.000Z</time>
      </trkpt>
      <trkpt lat="44.33928" lon="0.8673">
        <ele>213</ele>
        <time>2025-04-10T12:15:22.000Z</time>
      </trkpt>
      <trkpt lat="44.33932" lon="0.86717">
        <ele>213.1</ele>
        <time>2025-04-10T12:15:30.000Z</time>
      </trkpt>
      <trkpt lat="44.33937" lon="0.86705">
        <ele>213.5</ele>
        <time>2025-04-10T12:15:40.000Z</time>
      </trkpt>
      <trkpt lat="44.33939" lon="0.86692">
        <ele>213.6</ele>
        <time>2025-04-10T12:15:46.000Z</time>
      </trkpt>
      <trkpt lat="44.3394" lon="0.86677">
        <ele>213.8</ele>
        <time>2025-04-10T12:15:54.000Z</time>
      </trkpt>
      <trkpt lat="44.33939" lon="0.86662">
        <ele>213.9</ele>
        <time>2025-04-10T12:16:02.000Z</time>
      </trkpt>
      <trkpt lat="44.33938" lon="0.86649">
        <ele>214.1</ele>
        <time>2025-04-10T12:16:10.000Z</time>
      </trkpt>
      <trkpt lat="44.33936" lon="0.86635">
        <ele>214</ele>
        <time>2025-04-10T12:16:18.000Z</time>
      </trkpt>
      <trkpt lat="44.33934" lon="0.86623">
        <ele>213.5</ele>
        <time>2025-04-10T12:16:28.000Z</time>
      </trkpt>
      <trkpt lat="44.33933" lon="0.86609">
        <ele>213.1</ele>
        <time>2025-04-10T12:17:14.000Z</time>
      </trkpt>
      <trkpt lat="44.33936" lon="0.86596">
        <ele>212.8</ele>
        <time>2025-04-10T12:17:20.000Z</time>
      </trkpt>
      <trkpt lat="44.33939" lon="0.86581">
        <ele>212.6</ele>
        <time>2025-04-10T12:17:28.000Z</time>
      </trkpt>
      <trkpt lat="44.33942" lon="0.86567">
        <ele>212.7</ele>
        <time>2025-04-10T12:17:34.000Z</time>
      </trkpt>
      <trkpt lat="44.33946" lon="0.86553">
        <ele>212.8</ele>
        <time>2025-04-10T12:17:42.000Z</time>
      </trkpt>
      <trkpt lat="44.33949" lon="0.86539">
        <ele>212</ele>
        <time>2025-04-10T12:17:50.000Z</time>
      </trkpt>
      <trkpt lat="44.33953" lon="0.86524">
        <ele>211.7</ele>
        <time>2025-04-10T12:17:58.000Z</time>
      </trkpt>
      <trkpt lat="44.33957" lon="0.86512">
        <ele>212.2</ele>
        <time>2025-04-10T12:18:04.000Z</time>
      </trkpt>
      <trkpt lat="44.33961" lon="0.86501">
        <ele>212.6</ele>
        <time>2025-04-10T12:18:10.000Z</time>
      </trkpt>
      <trkpt lat="44.33965" lon="0.86488">
        <ele>212.9</ele>
        <time>2025-04-10T12:18:18.000Z</time>
      </trkpt>
      <trkpt lat="44.33969" lon="0.86475">
        <ele>213</ele>
        <time>2025-04-10T12:18:26.000Z</time>
      </trkpt>
      <trkpt lat="44.33974" lon="0.86461">
        <ele>213.5</ele>
        <time>2025-04-10T12:18:34.000Z</time>
      </trkpt>
      <trkpt lat="44.33979" lon="0.86449">
        <ele>214.1</ele>
        <time>2025-04-10T12:18:42.000Z</time>
      </trkpt>
      <trkpt lat="44.33984" lon="0.86438">
        <ele>214.6</ele>
        <time>2025-04-10T12:18:50.000Z</time>
      </trkpt>
      <trkpt lat="44.33989" lon="0.86425">
        <ele>215.3</ele>
        <time>2025-04-10T12:18:58.000Z</time>
      </trkpt>
      <trkpt lat="44.33994" lon="0.86413">
        <ele>215.9</ele>
        <time>2025-04-10T12:19:08.000Z</time>
      </trkpt>
      <trkpt lat="44.33999" lon="0.86401">
        <ele>216.5</ele>
        <time>2025-04-10T12:19:16.000Z</time>
      </trkpt>
      <trkpt lat="44.34002" lon="0.86387">
        <ele>217.2</ele>
        <time>2025-04-10T12:19:24.000Z</time>
      </trkpt>
      <trkpt lat="44.34004" lon="0.86373">
        <ele>218.3</ele>
        <time>2025-04-10T12:19:32.000Z</time>
      </trkpt>
      <trkpt lat="44.34007" lon="0.86361">
        <ele>219.3</ele>
        <time>2025-04-10T12:19:40.000Z</time>
      </trkpt>
      <trkpt lat="44.34011" lon="0.86349">
        <ele>219.8</ele>
        <time>2025-04-10T12:19:48.000Z</time>
      </trkpt>
      <trkpt lat="44.34016" lon="0.86338">
        <ele>220.4</ele>
        <time>2025-04-10T12:19:56.000Z</time>
      </trkpt>
      <trkpt lat="44.34016" lon="0.86326">
        <ele>220.9</ele>
        <time>2025-04-10T12:20:18.000Z</time>
      </trkpt>
      <trkpt lat="44.34009" lon="0.8632">
        <ele>221.1</ele>
        <time>2025-04-10T12:20:26.000Z</time>
      </trkpt>
      <trkpt lat="44.34" lon="0.86318">
        <ele>221.1</ele>
        <time>2025-04-10T12:20:34.000Z</time>
      </trkpt>
      <trkpt lat="44.33991" lon="0.86321">
        <ele>220.9</ele>
        <time>2025-04-10T12:20:42.000Z</time>
      </trkpt>
      <trkpt lat="44.33981" lon="0.86326">
        <ele>220.5</ele>
        <time>2025-04-10T12:20:50.000Z</time>
      </trkpt>
      <trkpt lat="44.33971" lon="0.8633">
        <ele>220.3</ele>
        <time>2025-04-10T12:21:00.000Z</time>
      </trkpt>
      <trkpt lat="44.33962" lon="0.86332">
        <ele>220.1</ele>
        <time>2025-04-10T12:21:08.000Z</time>
      </trkpt>
      <trkpt lat="44.33952" lon="0.86335">
        <ele>219.9</ele>
        <time>2025-04-10T12:21:16.000Z</time>
      </trkpt>
      <trkpt lat="44.33943" lon="0.86339">
        <ele>219.6</ele>
        <time>2025-04-10T12:21:24.000Z</time>
      </trkpt>
      <trkpt lat="44.33933" lon="0.86342">
        <ele>219.5</ele>
        <time>2025-04-10T12:21:32.000Z</time>
      </trkpt>
      <trkpt lat="44.33923" lon="0.86341">
        <ele>219.7</ele>
        <time>2025-04-10T12:21:40.000Z</time>
      </trkpt>
      <trkpt lat="44.33914" lon="0.86339">
        <ele>219.8</ele>
        <time>2025-04-10T12:21:46.000Z</time>
      </trkpt>
      <trkpt lat="44.33905" lon="0.86337">
        <ele>219.6</ele>
        <time>2025-04-10T12:21:54.000Z</time>
      </trkpt>
      <trkpt lat="44.33896" lon="0.86335">
        <ele>219.3</ele>
        <time>2025-04-10T12:22:02.000Z</time>
      </trkpt>
      <trkpt lat="44.33887" lon="0.86332">
        <ele>219.1</ele>
        <time>2025-04-10T12:22:08.000Z</time>
      </trkpt>
      <trkpt lat="44.33878" lon="0.86329">
        <ele>219.2</ele>
        <time>2025-04-10T12:22:16.000Z</time>
      </trkpt>
      <trkpt lat="44.33868" lon="0.86326">
        <ele>219.3</ele>
        <time>2025-04-10T12:22:24.000Z</time>
      </trkpt>
      <trkpt lat="44.33858" lon="0.86322">
        <ele>219.3</ele>
        <time>2025-04-10T12:22:32.000Z</time>
      </trkpt>
      <trkpt lat="44.33847" lon="0.86319">
        <ele>219</ele>
        <time>2025-04-10T12:22:40.000Z</time>
      </trkpt>
      <trkpt lat="44.33837" lon="0.86316">
        <ele>218.8</ele>
        <time>2025-04-10T12:22:48.000Z</time>
      </trkpt>
      <trkpt lat="44.33826" lon="0.86312">
        <ele>218.5</ele>
        <time>2025-04-10T12:22:57.000Z</time>
      </trkpt>
      <trkpt lat="44.33816" lon="0.86308">
        <ele>218.3</ele>
        <time>2025-04-10T12:23:05.000Z</time>
      </trkpt>
      <trkpt lat="44.33806" lon="0.86307">
        <ele>218</ele>
        <time>2025-04-10T12:23:12.000Z</time>
      </trkpt>
      <trkpt lat="44.33797" lon="0.86303">
        <ele>217.6</ele>
        <time>2025-04-10T12:23:20.000Z</time>
      </trkpt>
      <trkpt lat="44.33788" lon="0.86299">
        <ele>217.4</ele>
        <time>2025-04-10T12:23:28.000Z</time>
      </trkpt>
      <trkpt lat="44.33778" lon="0.86296">
        <ele>217.1</ele>
        <time>2025-04-10T12:23:36.000Z</time>
      </trkpt>
      <trkpt lat="44.33768" lon="0.86292">
        <ele>217.3</ele>
        <time>2025-04-10T12:23:44.000Z</time>
      </trkpt>
      <trkpt lat="44.33758" lon="0.86289">
        <ele>217.3</ele>
        <time>2025-04-10T12:23:52.000Z</time>
      </trkpt>
      <trkpt lat="44.33749" lon="0.86285">
        <ele>217.4</ele>
        <time>2025-04-10T12:24:00.000Z</time>
      </trkpt>
      <trkpt lat="44.33739" lon="0.8628">
        <ele>217.5</ele>
        <time>2025-04-10T12:24:08.000Z</time>
      </trkpt>
      <trkpt lat="44.33731" lon="0.86277">
        <ele>217.3</ele>
        <time>2025-04-10T12:24:14.000Z</time>
      </trkpt>
      <trkpt lat="44.33722" lon="0.86275">
        <ele>217</ele>
        <time>2025-04-10T12:24:20.000Z</time>
      </trkpt>
      <trkpt lat="44.33713" lon="0.86272">
        <ele>216.6</ele>
        <time>2025-04-10T12:24:26.000Z</time>
      </trkpt>
      <trkpt lat="44.33704" lon="0.86265">
        <ele>216</ele>
        <time>2025-04-10T12:24:35.000Z</time>
      </trkpt>
      <trkpt lat="44.33695" lon="0.86256">
        <ele>215.3</ele>
        <time>2025-04-10T12:24:43.000Z</time>
      </trkpt>
      <trkpt lat="44.33688" lon="0.86248">
        <ele>214.7</ele>
        <time>2025-04-10T12:24:51.000Z</time>
      </trkpt>
      <trkpt lat="44.33681" lon="0.8624">
        <ele>214.3</ele>
        <time>2025-04-10T12:24:59.000Z</time>
      </trkpt>
      <trkpt lat="44.33674" lon="0.8623">
        <ele>213.7</ele>
        <time>2025-04-10T12:25:07.000Z</time>
      </trkpt>
      <trkpt lat="44.33667" lon="0.86221">
        <ele>213</ele>
        <time>2025-04-10T12:25:14.000Z</time>
      </trkpt>
      <trkpt lat="44.3366" lon="0.8621">
        <ele>212.5</ele>
        <time>2025-04-10T12:25:22.000Z</time>
      </trkpt>
      <trkpt lat="44.33653" lon="0.86198">
        <ele>212</ele>
        <time>2025-04-10T12:25:30.000Z</time>
      </trkpt>
      <trkpt lat="44.33647" lon="0.86187">
        <ele>211.9</ele>
        <time>2025-04-10T12:25:38.000Z</time>
      </trkpt>
      <trkpt lat="44.33642" lon="0.86176">
        <ele>212.4</ele>
        <time>2025-04-10T12:25:44.000Z</time>
      </trkpt>
      <trkpt lat="44.33638" lon="0.86165">
        <ele>213</ele>
        <time>2025-04-10T12:25:50.000Z</time>
      </trkpt>
      <trkpt lat="44.33634" lon="0.86154">
        <ele>212.8</ele>
        <time>2025-04-10T12:25:58.000Z</time>
      </trkpt>
      <trkpt lat="44.33628" lon="0.86142">
        <ele>212.6</ele>
        <time>2025-04-10T12:26:06.000Z</time>
      </trkpt>
      <trkpt lat="44.33624" lon="0.86131">
        <ele>212.9</ele>
        <time>2025-04-10T12:26:15.000Z</time>
      </trkpt>
      <trkpt lat="44.33619" lon="0.8612">
        <ele>213.5</ele>
        <time>2025-04-10T12:26:22.000Z</time>
      </trkpt>
      <trkpt lat="44.33614" lon="0.86111">
        <ele>214</ele>
        <time>2025-04-10T12:28:13.000Z</time>
      </trkpt>
      <trkpt lat="44.33605" lon="0.86109">
        <ele>213.9</ele>
        <time>2025-04-10T12:29:26.000Z</time>
      </trkpt>
      <trkpt lat="44.33596" lon="0.86107">
        <ele>213.7</ele>
        <time>2025-04-10T12:29:42.000Z</time>
      </trkpt>
      <trkpt lat="44.33588" lon="0.86103">
        <ele>213.7</ele>
        <time>2025-04-10T12:29:50.000Z</time>
      </trkpt>
      <trkpt lat="44.33579" lon="0.86107">
        <ele>213.1</ele>
        <time>2025-04-10T12:29:56.000Z</time>
      </trkpt>
      <trkpt lat="44.33569" lon="0.86113">
        <ele>212.3</ele>
        <time>2025-04-10T12:30:04.000Z</time>
      </trkpt>
      <trkpt lat="44.3356" lon="0.86118">
        <ele>211.7</ele>
        <time>2025-04-10T12:30:14.000Z</time>
      </trkpt>
      <trkpt lat="44.3355" lon="0.8612">
        <ele>211.4</ele>
        <time>2025-04-10T12:30:22.000Z</time>
      </trkpt>
      <trkpt lat="44.3354" lon="0.86123">
        <ele>211.2</ele>
        <time>2025-04-10T12:30:30.000Z</time>
      </trkpt>
      <trkpt lat="44.3353" lon="0.86129">
        <ele>210.7</ele>
        <time>2025-04-10T12:30:38.000Z</time>
      </trkpt>
      <trkpt lat="44.33521" lon="0.86136">
        <ele>210.7</ele>
        <time>2025-04-10T12:30:48.000Z</time>
      </trkpt>
      <trkpt lat="44.33512" lon="0.86143">
        <ele>210.9</ele>
        <time>2025-04-10T12:30:56.000Z</time>
      </trkpt>
      <trkpt lat="44.33504" lon="0.8615">
        <ele>210.9</ele>
        <time>2025-04-10T12:31:04.000Z</time>
      </trkpt>
      <trkpt lat="44.33497" lon="0.86157">
        <ele>210.9</ele>
        <time>2025-04-10T12:31:10.000Z</time>
      </trkpt>
      <trkpt lat="44.3349" lon="0.86164">
        <ele>211.2</ele>
        <time>2025-04-10T12:31:18.000Z</time>
      </trkpt>
      <trkpt lat="44.33482" lon="0.86171">
        <ele>211.6</ele>
        <time>2025-04-10T12:31:26.000Z</time>
      </trkpt>
      <trkpt lat="44.33475" lon="0.86179">
        <ele>211.5</ele>
        <time>2025-04-10T12:31:34.000Z</time>
      </trkpt>
      <trkpt lat="44.33467" lon="0.86188">
        <ele>211.2</ele>
        <time>2025-04-10T12:31:42.000Z</time>
      </trkpt>
      <trkpt lat="44.33458" lon="0.86194">
        <ele>211.5</ele>
        <time>2025-04-10T12:31:52.000Z</time>
      </trkpt>
      <trkpt lat="44.3345" lon="0.86201">
        <ele>211.8</ele>
        <time>2025-04-10T12:32:00.000Z</time>
      </trkpt>
      <trkpt lat="44.33441" lon="0.86208">
        <ele>211.8</ele>
        <time>2025-04-10T12:32:10.000Z</time>
      </trkpt>
      <trkpt lat="44.33434" lon="0.86216">
        <ele>211.7</ele>
        <time>2025-04-10T12:32:18.000Z</time>
      </trkpt>
      <trkpt lat="44.33427" lon="0.86224">
        <ele>211.8</ele>
        <time>2025-04-10T12:32:26.000Z</time>
      </trkpt>
      <trkpt lat="44.33419" lon="0.86232">
        <ele>212.1</ele>
        <time>2025-04-10T12:32:34.000Z</time>
      </trkpt>
      <trkpt lat="44.33412" lon="0.86239">
        <ele>212.5</ele>
        <time>2025-04-10T12:32:42.000Z</time>
      </trkpt>
      <trkpt lat="44.33405" lon="0.86248">
        <ele>212.7</ele>
        <time>2025-04-10T12:32:50.000Z</time>
      </trkpt>
      <trkpt lat="44.33398" lon="0.86258">
        <ele>213.2</ele>
        <time>2025-04-10T12:33:00.000Z</time>
      </trkpt>
      <trkpt lat="44.3339" lon="0.86268">
        <ele>213.6</ele>
        <time>2025-04-10T12:33:08.000Z</time>
      </trkpt>
      <trkpt lat="44.33382" lon="0.86278">
        <ele>213.7</ele>
        <time>2025-04-10T12:33:16.000Z</time>
      </trkpt>
      <trkpt lat="44.33375" lon="0.86287">
        <ele>214.1</ele>
        <time>2025-04-10T12:33:24.000Z</time>
      </trkpt>
      <trkpt lat="44.33368" lon="0.86298">
        <ele>214.5</ele>
        <time>2025-04-10T12:33:32.000Z</time>
      </trkpt>
      <trkpt lat="44.3336" lon="0.86308">
        <ele>215</ele>
        <time>2025-04-10T12:33:42.000Z</time>
      </trkpt>
      <trkpt lat="44.33353" lon="0.86318">
        <ele>215.5</ele>
        <time>2025-04-10T12:33:52.000Z</time>
      </trkpt>
      <trkpt lat="44.33345" lon="0.86328">
        <ele>216</ele>
        <time>2025-04-10T12:34:02.000Z</time>
      </trkpt>
      <trkpt lat="44.33337" lon="0.86336">
        <ele>216.4</ele>
        <time>2025-04-10T12:34:10.000Z</time>
      </trkpt>
      <trkpt lat="44.3333" lon="0.86345">
        <ele>216.4</ele>
        <time>2025-04-10T12:34:20.000Z</time>
      </trkpt>
      <trkpt lat="44.33324" lon="0.86354">
        <ele>216.5</ele>
        <time>2025-04-10T12:34:30.000Z</time>
      </trkpt>
      <trkpt lat="44.33317" lon="0.86362">
        <ele>216.8</ele>
        <time>2025-04-10T12:34:38.000Z</time>
      </trkpt>
      <trkpt lat="44.33309" lon="0.8637">
        <ele>217</ele>
        <time>2025-04-10T12:34:46.000Z</time>
      </trkpt>
      <trkpt lat="44.33303" lon="0.86379">
        <ele>217.1</ele>
        <time>2025-04-10T12:34:54.000Z</time>
      </trkpt>
      <trkpt lat="44.33295" lon="0.86388">
        <ele>217.5</ele>
        <time>2025-04-10T12:35:02.000Z</time>
      </trkpt>
      <trkpt lat="44.33289" lon="0.86398">
        <ele>218</ele>
        <time>2025-04-10T12:35:10.000Z</time>
      </trkpt>
      <trkpt lat="44.33281" lon="0.86406">
        <ele>218.8</ele>
        <time>2025-04-10T12:35:20.000Z</time>
      </trkpt>
      <trkpt lat="44.33274" lon="0.86417">
        <ele>219.3</ele>
        <time>2025-04-10T12:35:30.000Z</time>
      </trkpt>
      <trkpt lat="44.33266" lon="0.86426">
        <ele>219.4</ele>
        <time>2025-04-10T12:35:38.000Z</time>
      </trkpt>
      <trkpt lat="44.33259" lon="0.86435">
        <ele>220</ele>
        <time>2025-04-10T12:35:46.000Z</time>
      </trkpt>
      <trkpt lat="44.33251" lon="0.86444">
        <ele>220.9</ele>
        <time>2025-04-10T12:35:56.000Z</time>
      </trkpt>
      <trkpt lat="44.33244" lon="0.86455">
        <ele>220.9</ele>
        <time>2025-04-10T12:36:06.000Z</time>
      </trkpt>
      <trkpt lat="44.33237" lon="0.86465">
        <ele>221.1</ele>
        <time>2025-04-10T12:36:14.000Z</time>
      </trkpt>
      <trkpt lat="44.3323" lon="0.86475">
        <ele>221.3</ele>
        <time>2025-04-10T12:36:22.000Z</time>
      </trkpt>
      <trkpt lat="44.33221" lon="0.86483">
        <ele>221.6</ele>
        <time>2025-04-10T12:36:32.000Z</time>
      </trkpt>
      <trkpt lat="44.33213" lon="0.86493">
        <ele>221.7</ele>
        <time>2025-04-10T12:36:42.000Z</time>
      </trkpt>
      <trkpt lat="44.33206" lon="0.86503">
        <ele>222.1</ele>
        <time>2025-04-10T12:36:51.000Z</time>
      </trkpt>
      <trkpt lat="44.33199" lon="0.86511">
        <ele>222.3</ele>
        <time>2025-04-10T12:36:59.000Z</time>
      </trkpt>
      <trkpt lat="44.33192" lon="0.86522">
        <ele>222.4</ele>
        <time>2025-04-10T12:37:10.000Z</time>
      </trkpt>
      <trkpt lat="44.33186" lon="0.86534">
        <ele>222.4</ele>
        <time>2025-04-10T12:37:20.000Z</time>
      </trkpt>
      <trkpt lat="44.33181" lon="0.86546">
        <ele>222.4</ele>
        <time>2025-04-10T12:37:28.000Z</time>
      </trkpt>
      <trkpt lat="44.33175" lon="0.86557">
        <ele>222.3</ele>
        <time>2025-04-10T12:37:37.000Z</time>
      </trkpt>
      <trkpt lat="44.3317" lon="0.86568">
        <ele>221.9</ele>
        <time>2025-04-10T12:37:45.000Z</time>
      </trkpt>
      <trkpt lat="44.33165" lon="0.86581">
        <ele>221.3</ele>
        <time>2025-04-10T12:37:55.000Z</time>
      </trkpt>
      <trkpt lat="44.33159" lon="0.86592">
        <ele>220.9</ele>
        <time>2025-04-10T12:38:05.000Z</time>
      </trkpt>
      <trkpt lat="44.33151" lon="0.86595">
        <ele>220.9</ele>
        <time>2025-04-10T12:38:17.000Z</time>
      </trkpt>
      <trkpt lat="44.33141" lon="0.86594">
        <ele>221.2</ele>
        <time>2025-04-10T12:39:14.000Z</time>
      </trkpt>
      <trkpt lat="44.33132" lon="0.86589">
        <ele>221.9</ele>
        <time>2025-04-10T12:39:21.000Z</time>
      </trkpt>
      <trkpt lat="44.33123" lon="0.86584">
        <ele>222.5</ele>
        <time>2025-04-10T12:39:28.000Z</time>
      </trkpt>
      <trkpt lat="44.33114" lon="0.86582">
        <ele>223</ele>
        <time>2025-04-10T12:39:36.000Z</time>
      </trkpt>
      <trkpt lat="44.33105" lon="0.86576">
        <ele>223.6</ele>
        <time>2025-04-10T12:39:46.000Z</time>
      </trkpt>
      <trkpt lat="44.33097" lon="0.8657">
        <ele>224.3</ele>
        <time>2025-04-10T12:39:54.000Z</time>
      </trkpt>
      <trkpt lat="44.33087" lon="0.86566">
        <ele>225</ele>
        <time>2025-04-10T12:40:02.000Z</time>
      </trkpt>
      <trkpt lat="44.33078" lon="0.86561">
        <ele>225.8</ele>
        <time>2025-04-10T12:40:12.000Z</time>
      </trkpt>
      <trkpt lat="44.33069" lon="0.86555">
        <ele>226.5</ele>
        <time>2025-04-10T12:40:22.000Z</time>
      </trkpt>
      <trkpt lat="44.3306" lon="0.8655">
        <ele>227</ele>
        <time>2025-04-10T12:40:32.000Z</time>
      </trkpt>
      <trkpt lat="44.33054" lon="0.86543">
        <ele>227.4</ele>
        <time>2025-04-10T12:40:42.000Z</time>
      </trkpt>
      <trkpt lat="44.33058" lon="0.86531">
        <ele>227.8</ele>
        <time>2025-04-10T12:44:26.000Z</time>
      </trkpt>
      <trkpt lat="44.33062" lon="0.86518">
        <ele>227.8</ele>
        <time>2025-04-10T12:44:36.000Z</time>
      </trkpt>
      <trkpt lat="44.33066" lon="0.86506">
        <ele>227.9</ele>
        <time>2025-04-10T12:44:46.000Z</time>
      </trkpt>
      <trkpt lat="44.33069" lon="0.86495">
        <ele>228.1</ele>
        <time>2025-04-10T12:44:55.000Z</time>
      </trkpt>
      <trkpt lat="44.33066" lon="0.86482">
        <ele>228.2</ele>
        <time>2025-04-10T12:45:05.000Z</time>
      </trkpt>
      <trkpt lat="44.3306" lon="0.86471">
        <ele>228.2</ele>
        <time>2025-04-10T12:45:13.000Z</time>
      </trkpt>
      <trkpt lat="44.33056" lon="0.86459">
        <ele>228</ele>
        <time>2025-04-10T12:45:23.000Z</time>
      </trkpt>
      <trkpt lat="44.33055" lon="0.86447">
        <ele>227.9</ele>
        <time>2025-04-10T12:45:31.000Z</time>
      </trkpt>
      <trkpt lat="44.33051" lon="0.86435">
        <ele>227.2</ele>
        <time>2025-04-10T12:45:39.000Z</time>
      </trkpt>
      <trkpt lat="44.33043" lon="0.8643">
        <ele>226.3</ele>
        <time>2025-04-10T12:45:49.000Z</time>
      </trkpt>
      <trkpt lat="44.33034" lon="0.86431">
        <ele>225.5</ele>
        <time>2025-04-10T12:45:57.000Z</time>
      </trkpt>
      <trkpt lat="44.33026" lon="0.86437">
        <ele>224.9</ele>
        <time>2025-04-10T12:46:05.000Z</time>
      </trkpt>
      <trkpt lat="44.33017" lon="0.86438">
        <ele>224.5</ele>
        <time>2025-04-10T12:46:13.000Z</time>
      </trkpt>
      <trkpt lat="44.33008" lon="0.86437">
        <ele>223.9</ele>
        <time>2025-04-10T12:46:21.000Z</time>
      </trkpt>
      <trkpt lat="44.33" lon="0.86438">
        <ele>223.5</ele>
        <time>2025-04-10T12:46:29.000Z</time>
      </trkpt>
      <trkpt lat="44.3299" lon="0.86441">
        <ele>223</ele>
        <time>2025-04-10T12:46:37.000Z</time>
      </trkpt>
      <trkpt lat="44.32982" lon="0.86443">
        <ele>222.5</ele>
        <time>2025-04-10T12:46:45.000Z</time>
      </trkpt>
      <trkpt lat="44.32973" lon="0.86444">
        <ele>222</ele>
        <time>2025-04-10T12:46:53.000Z</time>
      </trkpt>
      <trkpt lat="44.32962" lon="0.86446">
        <ele>221.3</ele>
        <time>2025-04-10T12:47:03.000Z</time>
      </trkpt>
      <trkpt lat="44.32953" lon="0.86445">
        <ele>220.6</ele>
        <time>2025-04-10T12:47:15.000Z</time>
      </trkpt>
      <trkpt lat="44.32943" lon="0.86445">
        <ele>220</ele>
        <time>2025-04-10T12:47:21.000Z</time>
      </trkpt>
      <trkpt lat="44.32934" lon="0.86446">
        <ele>219.7</ele>
        <time>2025-04-10T12:47:29.000Z</time>
      </trkpt>
      <trkpt lat="44.32925" lon="0.86446">
        <ele>219.4</ele>
        <time>2025-04-10T12:47:37.000Z</time>
      </trkpt>
      <trkpt lat="44.32916" lon="0.86446">
        <ele>219</ele>
        <time>2025-04-10T12:47:45.000Z</time>
      </trkpt>
      <trkpt lat="44.32907" lon="0.86448">
        <ele>218.4</ele>
        <time>2025-04-10T12:47:53.000Z</time>
      </trkpt>
      <trkpt lat="44.32898" lon="0.86449">
        <ele>217.8</ele>
        <time>2025-04-10T12:48:01.000Z</time>
      </trkpt>
      <trkpt lat="44.32889" lon="0.86454">
        <ele>217.3</ele>
        <time>2025-04-10T12:48:09.000Z</time>
      </trkpt>
      <trkpt lat="44.32883" lon="0.86464">
        <ele>216.8</ele>
        <time>2025-04-10T12:48:17.000Z</time>
      </trkpt>
      <trkpt lat="44.32877" lon="0.86474">
        <ele>216.4</ele>
        <time>2025-04-10T12:48:25.000Z</time>
      </trkpt>
      <trkpt lat="44.32871" lon="0.86485">
        <ele>216.4</ele>
        <time>2025-04-10T12:48:33.000Z</time>
      </trkpt>
      <trkpt lat="44.32862" lon="0.86494">
        <ele>216.4</ele>
        <time>2025-04-10T12:48:43.000Z</time>
      </trkpt>
      <trkpt lat="44.32855" lon="0.86502">
        <ele>216.4</ele>
        <time>2025-04-10T12:48:51.000Z</time>
      </trkpt>
      <trkpt lat="44.32846" lon="0.86509">
        <ele>216</ele>
        <time>2025-04-10T12:48:59.000Z</time>
      </trkpt>
      <trkpt lat="44.32836" lon="0.86515">
        <ele>215.8</ele>
        <time>2025-04-10T12:49:07.000Z</time>
      </trkpt>
      <trkpt lat="44.32827" lon="0.8652">
        <ele>216</ele>
        <time>2025-04-10T12:49:15.000Z</time>
      </trkpt>
      <trkpt lat="44.32817" lon="0.86521">
        <ele>215.7</ele>
        <time>2025-04-10T12:49:23.000Z</time>
      </trkpt>
      <trkpt lat="44.32807" lon="0.8652">
        <ele>215.2</ele>
        <time>2025-04-10T12:49:31.000Z</time>
      </trkpt>
      <trkpt lat="44.32798" lon="0.86521">
        <ele>215.3</ele>
        <time>2025-04-10T12:49:39.000Z</time>
      </trkpt>
      <trkpt lat="44.32788" lon="0.86521">
        <ele>215.4</ele>
        <time>2025-04-10T12:49:47.000Z</time>
      </trkpt>
      <trkpt lat="44.32778" lon="0.86519">
        <ele>215.4</ele>
        <time>2025-04-10T12:49:55.000Z</time>
      </trkpt>
      <trkpt lat="44.32767" lon="0.86517">
        <ele>215.2</ele>
        <time>2025-04-10T12:50:03.000Z</time>
      </trkpt>
      <trkpt lat="44.32756" lon="0.86514">
        <ele>215</ele>
        <time>2025-04-10T12:50:13.000Z</time>
      </trkpt>
      <trkpt lat="44.32747" lon="0.86512">
        <ele>214.9</ele>
        <time>2025-04-10T12:50:19.000Z</time>
      </trkpt>
      <trkpt lat="44.32738" lon="0.86509">
        <ele>214.9</ele>
        <time>2025-04-10T12:50:27.000Z</time>
      </trkpt>
      <trkpt lat="44.32729" lon="0.86505">
        <ele>215</ele>
        <time>2025-04-10T12:50:35.000Z</time>
      </trkpt>
      <trkpt lat="44.32719" lon="0.86502">
        <ele>215.1</ele>
        <time>2025-04-10T12:50:41.000Z</time>
      </trkpt>
      <trkpt lat="44.32711" lon="0.86498">
        <ele>215</ele>
        <time>2025-04-10T12:50:49.000Z</time>
      </trkpt>
      <trkpt lat="44.32702" lon="0.86492">
        <ele>214.9</ele>
        <time>2025-04-10T12:50:57.000Z</time>
      </trkpt>
      <trkpt lat="44.32694" lon="0.86485">
        <ele>215</ele>
        <time>2025-04-10T12:51:05.000Z</time>
      </trkpt>
      <trkpt lat="44.32686" lon="0.86479">
        <ele>214.9</ele>
        <time>2025-04-10T12:51:13.000Z</time>
      </trkpt>
      <trkpt lat="44.32678" lon="0.86475">
        <ele>214.9</ele>
        <time>2025-04-10T12:51:19.000Z</time>
      </trkpt>
      <trkpt lat="44.32668" lon="0.86473">
        <ele>215</ele>
        <time>2025-04-10T12:51:27.000Z</time>
      </trkpt>
      <trkpt lat="44.32658" lon="0.8647">
        <ele>214.4</ele>
        <time>2025-04-10T12:51:35.000Z</time>
      </trkpt>
      <trkpt lat="44.32649" lon="0.86467">
        <ele>213.8</ele>
        <time>2025-04-10T12:51:45.000Z</time>
      </trkpt>
      <trkpt lat="44.3264" lon="0.8647">
        <ele>213.2</ele>
        <time>2025-04-10T12:53:17.000Z</time>
      </trkpt>
      <trkpt lat="44.32631" lon="0.86476">
        <ele>212.3</ele>
        <time>2025-04-10T12:53:33.000Z</time>
      </trkpt>
      <trkpt lat="44.32621" lon="0.86479">
        <ele>211.5</ele>
        <time>2025-04-10T12:53:43.000Z</time>
      </trkpt>
      <trkpt lat="44.32612" lon="0.86481">
        <ele>210.7</ele>
        <time>2025-04-10T12:53:53.000Z</time>
      </trkpt>
      <trkpt lat="44.32602" lon="0.86483">
        <ele>209.4</ele>
        <time>2025-04-10T12:54:01.000Z</time>
      </trkpt>
      <trkpt lat="44.32592" lon="0.86487">
        <ele>208</ele>
        <time>2025-04-10T12:54:09.000Z</time>
      </trkpt>
      <trkpt lat="44.32582" lon="0.8649">
        <ele>206.9</ele>
        <time>2025-04-10T12:54:17.000Z</time>
      </trkpt>
      <trkpt lat="44.32574" lon="0.86492">
        <ele>205.6</ele>
        <time>2025-04-10T12:54:25.000Z</time>
      </trkpt>
      <trkpt lat="44.32565" lon="0.86495">
        <ele>204.3</ele>
        <time>2025-04-10T12:54:35.000Z</time>
      </trkpt>
      <trkpt lat="44.32556" lon="0.86498">
        <ele>203.1</ele>
        <time>2025-04-10T12:54:43.000Z</time>
      </trkpt>
      <trkpt lat="44.32547" lon="0.86501">
        <ele>201.1</ele>
        <time>2025-04-10T12:54:53.000Z</time>
      </trkpt>
      <trkpt lat="44.32537" lon="0.86501">
        <ele>199</ele>
        <time>2025-04-10T12:55:04.000Z</time>
      </trkpt>
      <trkpt lat="44.32529" lon="0.86497">
        <ele>197.4</ele>
        <time>2025-04-10T12:55:12.000Z</time>
      </trkpt>
      <trkpt lat="44.32523" lon="0.86505">
        <ele>195.1</ele>
        <time>2025-04-10T12:55:24.000Z</time>
      </trkpt>
      <trkpt lat="44.32523" lon="0.86518">
        <ele>194</ele>
        <time>2025-04-10T12:55:32.000Z</time>
      </trkpt>
      <trkpt lat="44.32523" lon="0.86532">
        <ele>193.2</ele>
        <time>2025-04-10T12:55:40.000Z</time>
      </trkpt>
      <trkpt lat="44.3252" lon="0.86545">
        <ele>191.6</ele>
        <time>2025-04-10T12:55:54.000Z</time>
      </trkpt>
      <trkpt lat="44.32518" lon="0.86557">
        <ele>190.1</ele>
        <time>2025-04-10T12:56:06.000Z</time>
      </trkpt>
      <trkpt lat="44.32515" lon="0.86569">
        <ele>188.2</ele>
        <time>2025-04-10T12:56:17.000Z</time>
      </trkpt>
      <trkpt lat="44.32511" lon="0.86581">
        <ele>185.8</ele>
        <time>2025-04-10T12:56:29.000Z</time>
      </trkpt>
      <trkpt lat="44.3251" lon="0.86593">
        <ele>184.6</ele>
        <time>2025-04-10T12:56:49.000Z</time>
      </trkpt>
      <trkpt lat="44.32514" lon="0.86604">
        <ele>185.5</ele>
        <time>2025-04-10T12:57:15.000Z</time>
      </trkpt>
      <trkpt lat="44.32508" lon="0.86614">
        <ele>182.2</ele>
        <time>2025-04-10T12:57:17.000Z</time>
      </trkpt>
      <trkpt lat="44.32506" lon="0.86625">
        <ele>179.4</ele>
        <time>2025-04-10T12:57:25.000Z</time>
      </trkpt>
      <trkpt lat="44.32505" lon="0.86638">
        <ele>177.5</ele>
        <time>2025-04-10T12:57:33.000Z</time>
      </trkpt>
      <trkpt lat="44.32504" lon="0.86651">
        <ele>175</ele>
        <time>2025-04-10T12:57:47.000Z</time>
      </trkpt>
      <trkpt lat="44.32503" lon="0.86665">
        <ele>172.5</ele>
        <time>2025-04-10T12:57:55.000Z</time>
      </trkpt>
      <trkpt lat="44.32502" lon="0.86678">
        <ele>170.6</ele>
        <time>2025-04-10T12:58:05.000Z</time>
      </trkpt>
      <trkpt lat="44.32502" lon="0.86692">
        <ele>169</ele>
        <time>2025-04-10T12:58:13.000Z</time>
      </trkpt>
      <trkpt lat="44.32502" lon="0.86705">
        <ele>167.5</ele>
        <time>2025-04-10T12:58:25.000Z</time>
      </trkpt>
      <trkpt lat="44.32503" lon="0.86718">
        <ele>166.2</ele>
        <time>2025-04-10T12:58:33.000Z</time>
      </trkpt>
      <trkpt lat="44.32504" lon="0.86731">
        <ele>164.8</ele>
        <time>2025-04-10T12:58:41.000Z</time>
      </trkpt>
      <trkpt lat="44.32501" lon="0.86745">
        <ele>162.8</ele>
        <time>2025-04-10T12:58:49.000Z</time>
      </trkpt>
      <trkpt lat="44.32495" lon="0.86756">
        <ele>160.5</ele>
        <time>2025-04-10T12:58:58.000Z</time>
      </trkpt>
      <trkpt lat="44.32488" lon="0.86764">
        <ele>158.5</ele>
        <time>2025-04-10T12:59:04.000Z</time>
      </trkpt>
      <trkpt lat="44.32481" lon="0.86773">
        <ele>156.9</ele>
        <time>2025-04-10T12:59:11.000Z</time>
      </trkpt>
      <trkpt lat="44.32474" lon="0.86781">
        <ele>156</ele>
        <time>2025-04-10T12:59:21.000Z</time>
      </trkpt>
      <trkpt lat="44.32466" lon="0.86791">
        <ele>155.6</ele>
        <time>2025-04-10T12:59:29.000Z</time>
      </trkpt>
      <trkpt lat="44.32458" lon="0.86802">
        <ele>155.4</ele>
        <time>2025-04-10T12:59:37.000Z</time>
      </trkpt>
      <trkpt lat="44.32452" lon="0.86814">
        <ele>155.5</ele>
        <time>2025-04-10T12:59:43.000Z</time>
      </trkpt>
      <trkpt lat="44.32446" lon="0.86823">
        <ele>155.5</ele>
        <time>2025-04-10T12:59:49.000Z</time>
      </trkpt>
      <trkpt lat="44.3244" lon="0.86834">
        <ele>156.1</ele>
        <time>2025-04-10T12:59:57.000Z</time>
      </trkpt>
      <trkpt lat="44.32434" lon="0.86845">
        <ele>155.8</ele>
        <time>2025-04-10T13:00:05.000Z</time>
      </trkpt>
      <trkpt lat="44.32431" lon="0.86861">
        <ele>156.5</ele>
        <time>2025-04-10T13:00:13.000Z</time>
      </trkpt>
      <trkpt lat="44.3243" lon="0.86874">
        <ele>157.5</ele>
        <time>2025-04-10T13:00:20.000Z</time>
      </trkpt>
      <trkpt lat="44.32425" lon="0.86883">
        <ele>156.7</ele>
        <time>2025-04-10T13:01:24.000Z</time>
      </trkpt>
      <trkpt lat="44.32422" lon="0.86895">
        <ele>155.6</ele>
        <time>2025-04-10T13:04:48.000Z</time>
      </trkpt>
      <trkpt lat="44.32418" lon="0.86907">
        <ele>153.7</ele>
        <time>2025-04-10T13:04:58.000Z</time>
      </trkpt>
      <trkpt lat="44.32415" lon="0.86921">
        <ele>151.9</ele>
        <time>2025-04-10T13:05:08.000Z</time>
      </trkpt>
      <trkpt lat="44.32414" lon="0.86934">
        <ele>150.1</ele>
        <time>2025-04-10T13:05:18.000Z</time>
      </trkpt>
      <trkpt lat="44.32416" lon="0.86945">
        <ele>149.7</ele>
        <time>2025-04-10T13:05:26.000Z</time>
      </trkpt>
      <trkpt lat="44.32418" lon="0.86958">
        <ele>148.1</ele>
        <time>2025-04-10T13:05:36.000Z</time>
      </trkpt>
      <trkpt lat="44.3242" lon="0.86971">
        <ele>146.6</ele>
        <time>2025-04-10T13:05:44.000Z</time>
      </trkpt>
      <trkpt lat="44.32423" lon="0.86985">
        <ele>145.3</ele>
        <time>2025-04-10T13:05:54.000Z</time>
      </trkpt>
      <trkpt lat="44.32428" lon="0.86996">
        <ele>145</ele>
        <time>2025-04-10T13:06:02.000Z</time>
      </trkpt>
      <trkpt lat="44.32433" lon="0.87008">
        <ele>144.2</ele>
        <time>2025-04-10T13:06:11.000Z</time>
      </trkpt>
      <trkpt lat="44.32438" lon="0.87018">
        <ele>144</ele>
        <time>2025-04-10T13:06:18.000Z</time>
      </trkpt>
      <trkpt lat="44.32446" lon="0.87024">
        <ele>145.4</ele>
        <time>2025-04-10T13:06:27.000Z</time>
      </trkpt>
      <trkpt lat="44.32455" lon="0.87022">
        <ele>148.8</ele>
        <time>2025-04-10T13:06:39.000Z</time>
      </trkpt>
      <trkpt lat="44.32464" lon="0.87023">
        <ele>151.7</ele>
        <time>2025-04-10T13:06:49.000Z</time>
      </trkpt>
      <trkpt lat="44.32473" lon="0.87024">
        <ele>154.4</ele>
        <time>2025-04-10T13:06:57.000Z</time>
      </trkpt>
      <trkpt lat="44.32481" lon="0.8703">
        <ele>155.3</ele>
        <time>2025-04-10T13:07:11.000Z</time>
      </trkpt>
      <trkpt lat="44.32488" lon="0.87039">
        <ele>154.5</ele>
        <time>2025-04-10T13:07:21.000Z</time>
      </trkpt>
      <trkpt lat="44.32495" lon="0.87048">
        <ele>154</ele>
        <time>2025-04-10T13:07:31.000Z</time>
      </trkpt>
      <trkpt lat="44.32503" lon="0.87055">
        <ele>154.2</ele>
        <time>2025-04-10T13:07:43.000Z</time>
      </trkpt>
      <trkpt lat="44.3251" lon="0.87063">
        <ele>155.4</ele>
        <time>2025-04-10T13:07:54.000Z</time>
      </trkpt>
      <trkpt lat="44.32517" lon="0.87073">
        <ele>155.9</ele>
        <time>2025-04-10T13:08:13.000Z</time>
      </trkpt>
      <trkpt lat="44.32523" lon="0.8708">
        <ele>156.8</ele>
        <time>2025-04-10T13:08:22.000Z</time>
      </trkpt>
      <trkpt lat="44.32518" lon="0.87087">
        <ele>154.5</ele>
        <time>2025-04-10T13:08:22.000Z</time>
      </trkpt>
      <trkpt lat="44.32515" lon="0.871">
        <ele>152.7</ele>
        <time>2025-04-10T13:08:32.000Z</time>
      </trkpt>
      <trkpt lat="44.32509" lon="0.87112">
        <ele>150.1</ele>
        <time>2025-04-10T13:08:42.000Z</time>
      </trkpt>
      <trkpt lat="44.32505" lon="0.87123">
        <ele>149.2</ele>
        <time>2025-04-10T13:08:52.000Z</time>
      </trkpt>
      <trkpt lat="44.32498" lon="0.87131">
        <ele>146.7</ele>
        <time>2025-04-10T13:09:10.000Z</time>
      </trkpt>
      <trkpt lat="44.3249" lon="0.87139">
        <ele>144.6</ele>
        <time>2025-04-10T13:09:20.000Z</time>
      </trkpt>
      <trkpt lat="44.32481" lon="0.87143">
        <ele>142.3</ele>
        <time>2025-04-10T13:09:30.000Z</time>
      </trkpt>
      <trkpt lat="44.32473" lon="0.87147">
        <ele>139.6</ele>
        <time>2025-04-10T13:09:42.000Z</time>
      </trkpt>
      <trkpt lat="44.32463" lon="0.87151">
        <ele>137.4</ele>
        <time>2025-04-10T13:09:52.000Z</time>
      </trkpt>
      <trkpt lat="44.32455" lon="0.87157">
        <ele>135.4</ele>
        <time>2025-04-10T13:09:58.000Z</time>
      </trkpt>
      <trkpt lat="44.32446" lon="0.87164">
        <ele>133.2</ele>
        <time>2025-04-10T13:10:12.000Z</time>
      </trkpt>
      <trkpt lat="44.32438" lon="0.87171">
        <ele>131.4</ele>
        <time>2025-04-10T13:10:22.000Z</time>
      </trkpt>
      <trkpt lat="44.32432" lon="0.8718">
        <ele>129.6</ele>
        <time>2025-04-10T13:10:34.000Z</time>
      </trkpt>
      <trkpt lat="44.32425" lon="0.87189">
        <ele>127.5</ele>
        <time>2025-04-10T13:10:46.000Z</time>
      </trkpt>
      <trkpt lat="44.32422" lon="0.87201">
        <ele>126.1</ele>
        <time>2025-04-10T13:10:58.000Z</time>
      </trkpt>
      <trkpt lat="44.32419" lon="0.87214">
        <ele>124.9</ele>
        <time>2025-04-10T13:11:08.000Z</time>
      </trkpt>
      <trkpt lat="44.32419" lon="0.87227">
        <ele>124.5</ele>
        <time>2025-04-10T13:11:20.000Z</time>
      </trkpt>
      <trkpt lat="44.32422" lon="0.8724">
        <ele>124.2</ele>
        <time>2025-04-10T13:11:30.000Z</time>
      </trkpt>
      <trkpt lat="44.32423" lon="0.87253">
        <ele>123.6</ele>
        <time>2025-04-10T13:11:38.000Z</time>
      </trkpt>
      <trkpt lat="44.32419" lon="0.87263">
        <ele>122.1</ele>
        <time>2025-04-10T13:11:50.000Z</time>
      </trkpt>
      <trkpt lat="44.32411" lon="0.87272">
        <ele>120.6</ele>
        <time>2025-04-10T13:11:58.000Z</time>
      </trkpt>
      <trkpt lat="44.32404" lon="0.87281">
        <ele>119.5</ele>
        <time>2025-04-10T13:12:08.000Z</time>
      </trkpt>
      <trkpt lat="44.32395" lon="0.87289">
        <ele>118.5</ele>
        <time>2025-04-10T13:12:18.000Z</time>
      </trkpt>
      <trkpt lat="44.32387" lon="0.87296">
        <ele>117.9</ele>
        <time>2025-04-10T13:12:28.000Z</time>
      </trkpt>
      <trkpt lat="44.32381" lon="0.87303">
        <ele>117.7</ele>
        <time>2025-04-10T13:12:40.000Z</time>
      </trkpt>
      <trkpt lat="44.32387" lon="0.87306">
        <ele>117.9</ele>
        <time>2025-04-10T13:14:30.000Z</time>
      </trkpt>
      <trkpt lat="44.32391" lon="0.87318">
        <ele>118.1</ele>
        <time>2025-04-10T13:15:58.000Z</time>
      </trkpt>
      <trkpt lat="44.32396" lon="0.87329">
        <ele>118.3</ele>
        <time>2025-04-10T13:16:10.000Z</time>
      </trkpt>
      <trkpt lat="44.32399" lon="0.87341">
        <ele>118.2</ele>
        <time>2025-04-10T13:16:18.000Z</time>
      </trkpt>
      <trkpt lat="44.32403" lon="0.87352">
        <ele>118.2</ele>
        <time>2025-04-10T13:16:27.000Z</time>
      </trkpt>
      <trkpt lat="44.32409" lon="0.87365">
        <ele>118.3</ele>
        <time>2025-04-10T13:16:34.000Z</time>
      </trkpt>
      <trkpt lat="44.32417" lon="0.87372">
        <ele>118.6</ele>
        <time>2025-04-10T13:16:42.000Z</time>
      </trkpt>
      <trkpt lat="44.32426" lon="0.87379">
        <ele>119.2</ele>
        <time>2025-04-10T13:16:50.000Z</time>
      </trkpt>
      <trkpt lat="44.32433" lon="0.87388">
        <ele>119.7</ele>
        <time>2025-04-10T13:16:58.000Z</time>
      </trkpt>
      <trkpt lat="44.32439" lon="0.87398">
        <ele>119.9</ele>
        <time>2025-04-10T13:17:06.000Z</time>
      </trkpt>
      <trkpt lat="44.32447" lon="0.87406">
        <ele>120.2</ele>
        <time>2025-04-10T13:17:14.000Z</time>
      </trkpt>
      <trkpt lat="44.32456" lon="0.87415">
        <ele>120.7</ele>
        <time>2025-04-10T13:17:24.000Z</time>
      </trkpt>
      <trkpt lat="44.32462" lon="0.87424">
        <ele>121.1</ele>
        <time>2025-04-10T13:17:32.000Z</time>
      </trkpt>
      <trkpt lat="44.32469" lon="0.87433">
        <ele>121.5</ele>
        <time>2025-04-10T13:17:40.000Z</time>
      </trkpt>
      <trkpt lat="44.32477" lon="0.87442">
        <ele>122.1</ele>
        <time>2025-04-10T13:17:50.000Z</time>
      </trkpt>
      <trkpt lat="44.32484" lon="0.87451">
        <ele>122.6</ele>
        <time>2025-04-10T13:17:58.000Z</time>
      </trkpt>
      <trkpt lat="44.32491" lon="0.87461">
        <ele>122.8</ele>
        <time>2025-04-10T13:18:06.000Z</time>
      </trkpt>
      <trkpt lat="44.32498" lon="0.87471">
        <ele>122.8</ele>
        <time>2025-04-10T13:18:14.000Z</time>
      </trkpt>
      <trkpt lat="44.32505" lon="0.8748">
        <ele>123.3</ele>
        <time>2025-04-10T13:18:22.000Z</time>
      </trkpt>
      <trkpt lat="44.32514" lon="0.8749">
        <ele>123.9</ele>
        <time>2025-04-10T13:18:32.000Z</time>
      </trkpt>
      <trkpt lat="44.32521" lon="0.875">
        <ele>124.1</ele>
        <time>2025-04-10T13:18:40.000Z</time>
      </trkpt>
      <trkpt lat="44.32528" lon="0.87509">
        <ele>124.4</ele>
        <time>2025-04-10T13:18:48.000Z</time>
      </trkpt>
      <trkpt lat="44.32536" lon="0.87518">
        <ele>124.9</ele>
        <time>2025-04-10T13:18:56.000Z</time>
      </trkpt>
      <trkpt lat="44.32543" lon="0.87527">
        <ele>125.3</ele>
        <time>2025-04-10T13:19:04.000Z</time>
      </trkpt>
      <trkpt lat="44.32551" lon="0.87537">
        <ele>125</ele>
        <time>2025-04-10T13:19:12.000Z</time>
      </trkpt>
      <trkpt lat="44.32558" lon="0.87544">
        <ele>124.9</ele>
        <time>2025-04-10T13:19:20.000Z</time>
      </trkpt>
      <trkpt lat="44.32566" lon="0.87551">
        <ele>124.8</ele>
        <time>2025-04-10T13:19:28.000Z</time>
      </trkpt>
      <trkpt lat="44.32574" lon="0.87558">
        <ele>124.7</ele>
        <time>2025-04-10T13:19:36.000Z</time>
      </trkpt>
      <trkpt lat="44.32582" lon="0.87566">
        <ele>124.3</ele>
        <time>2025-04-10T13:19:44.000Z</time>
      </trkpt>
      <trkpt lat="44.3259" lon="0.87576">
        <ele>123.9</ele>
        <time>2025-04-10T13:19:52.000Z</time>
      </trkpt>
      <trkpt lat="44.32598" lon="0.87583">
        <ele>123.6</ele>
        <time>2025-04-10T13:20:00.000Z</time>
      </trkpt>
      <trkpt lat="44.32607" lon="0.8759">
        <ele>123.8</ele>
        <time>2025-04-10T13:20:08.000Z</time>
      </trkpt>
      <trkpt lat="44.32615" lon="0.87598">
        <ele>123.9</ele>
        <time>2025-04-10T13:20:16.000Z</time>
      </trkpt>
      <trkpt lat="44.32624" lon="0.87606">
        <ele>123.9</ele>
        <time>2025-04-10T13:20:26.000Z</time>
      </trkpt>
      <trkpt lat="44.32632" lon="0.87614">
        <ele>124</ele>
        <time>2025-04-10T13:20:34.000Z</time>
      </trkpt>
      <trkpt lat="44.32639" lon="0.87622">
        <ele>123.8</ele>
        <time>2025-04-10T13:20:42.000Z</time>
      </trkpt>
      <trkpt lat="44.32646" lon="0.87631">
        <ele>123.9</ele>
        <time>2025-04-10T13:20:50.000Z</time>
      </trkpt>
      <trkpt lat="44.32654" lon="0.8764">
        <ele>124.1</ele>
        <time>2025-04-10T13:20:58.000Z</time>
      </trkpt>
      <trkpt lat="44.32663" lon="0.87648">
        <ele>124.2</ele>
        <time>2025-04-10T13:21:06.000Z</time>
      </trkpt>
      <trkpt lat="44.32671" lon="0.87655">
        <ele>124.2</ele>
        <time>2025-04-10T13:21:14.000Z</time>
      </trkpt>
      <trkpt lat="44.32679" lon="0.87663">
        <ele>124.2</ele>
        <time>2025-04-10T13:21:22.000Z</time>
      </trkpt>
      <trkpt lat="44.32688" lon="0.8767">
        <ele>124.7</ele>
        <time>2025-04-10T13:21:30.000Z</time>
      </trkpt>
      <trkpt lat="44.32696" lon="0.87677">
        <ele>125</ele>
        <time>2025-04-10T13:21:39.000Z</time>
      </trkpt>
      <trkpt lat="44.32705" lon="0.87681">
        <ele>125.4</ele>
        <time>2025-04-10T13:21:46.000Z</time>
      </trkpt>
      <trkpt lat="44.32715" lon="0.87685">
        <ele>126</ele>
        <time>2025-04-10T13:21:54.000Z</time>
      </trkpt>
      <trkpt lat="44.32725" lon="0.87689">
        <ele>126.6</ele>
        <time>2025-04-10T13:22:00.000Z</time>
      </trkpt>
      <trkpt lat="44.32735" lon="0.87694">
        <ele>126.9</ele>
        <time>2025-04-10T13:22:08.000Z</time>
      </trkpt>
      <trkpt lat="44.32743" lon="0.877">
        <ele>127.1</ele>
        <time>2025-04-10T13:22:16.000Z</time>
      </trkpt>
      <trkpt lat="44.32753" lon="0.87704">
        <ele>127.6</ele>
        <time>2025-04-10T13:22:24.000Z</time>
      </trkpt>
      <trkpt lat="44.32761" lon="0.87708">
        <ele>128.2</ele>
        <time>2025-04-10T13:22:35.000Z</time>
      </trkpt>
      <trkpt lat="44.32769" lon="0.87712">
        <ele>128.8</ele>
        <time>2025-04-10T13:22:40.000Z</time>
      </trkpt>
      <trkpt lat="44.32779" lon="0.87715">
        <ele>129.6</ele>
        <time>2025-04-10T13:22:49.000Z</time>
      </trkpt>
      <trkpt lat="44.32787" lon="0.87719">
        <ele>130.3</ele>
        <time>2025-04-10T13:22:55.000Z</time>
      </trkpt>
      <trkpt lat="44.32795" lon="0.87724">
        <ele>130.8</ele>
        <time>2025-04-10T13:23:01.000Z</time>
      </trkpt>
      <trkpt lat="44.32803" lon="0.87731">
        <ele>131.1</ele>
        <time>2025-04-10T13:23:09.000Z</time>
      </trkpt>
      <trkpt lat="44.32811" lon="0.8774">
        <ele>131.2</ele>
        <time>2025-04-10T13:23:17.000Z</time>
      </trkpt>
      <trkpt lat="44.3282" lon="0.87749">
        <ele>131.6</ele>
        <time>2025-04-10T13:23:25.000Z</time>
      </trkpt>
      <trkpt lat="44.32827" lon="0.8776">
        <ele>131.6</ele>
        <time>2025-04-10T13:23:33.000Z</time>
      </trkpt>
      <trkpt lat="44.32833" lon="0.87772">
        <ele>131.5</ele>
        <time>2025-04-10T13:23:41.000Z</time>
      </trkpt>
      <trkpt lat="44.3284" lon="0.87783">
        <ele>131.9</ele>
        <time>2025-04-10T13:23:49.000Z</time>
      </trkpt>
      <trkpt lat="44.32845" lon="0.87795">
        <ele>132.2</ele>
        <time>2025-04-10T13:23:57.000Z</time>
      </trkpt>
      <trkpt lat="44.3285" lon="0.87807">
        <ele>132.2</ele>
        <time>2025-04-10T13:24:05.000Z</time>
      </trkpt>
      <trkpt lat="44.32855" lon="0.8782">
        <ele>132.2</ele>
        <time>2025-04-10T13:24:13.000Z</time>
      </trkpt>
      <trkpt lat="44.32861" lon="0.87831">
        <ele>132.2</ele>
        <time>2025-04-10T13:24:19.000Z</time>
      </trkpt>
      <trkpt lat="44.32867" lon="0.87843">
        <ele>132.5</ele>
        <time>2025-04-10T13:24:27.000Z</time>
      </trkpt>
      <trkpt lat="44.32872" lon="0.87854">
        <ele>132.8</ele>
        <time>2025-04-10T13:24:35.000Z</time>
      </trkpt>
      <trkpt lat="44.32876" lon="0.87867">
        <ele>133</ele>
        <time>2025-04-10T13:24:43.000Z</time>
      </trkpt>
      <trkpt lat="44.3288" lon="0.87882">
        <ele>133.3</ele>
        <time>2025-04-10T13:24:51.000Z</time>
      </trkpt>
      <trkpt lat="44.32883" lon="0.87898">
        <ele>133.3</ele>
        <time>2025-04-10T13:25:00.000Z</time>
      </trkpt>
      <trkpt lat="44.32886" lon="0.87913">
        <ele>133.5</ele>
        <time>2025-04-10T13:25:11.000Z</time>
      </trkpt>
      <trkpt lat="44.32888" lon="0.87925">
        <ele>133.1</ele>
        <time>2025-04-10T13:25:18.000Z</time>
      </trkpt>
      <trkpt lat="44.32887" lon="0.87938">
        <ele>132.1</ele>
        <time>2025-04-10T13:25:24.000Z</time>
      </trkpt>
      <trkpt lat="44.32888" lon="0.8795">
        <ele>131.2</ele>
        <time>2025-04-10T13:25:32.000Z</time>
      </trkpt>
      <trkpt lat="44.32892" lon="0.87962">
        <ele>130.6</ele>
        <time>2025-04-10T13:25:40.000Z</time>
      </trkpt>
      <trkpt lat="44.32897" lon="0.87975">
        <ele>130</ele>
        <time>2025-04-10T13:25:48.000Z</time>
      </trkpt>
      <trkpt lat="44.32902" lon="0.87987">
        <ele>129.5</ele>
        <time>2025-04-10T13:25:56.000Z</time>
      </trkpt>
      <trkpt lat="44.32909" lon="0.87995">
        <ele>129.1</ele>
        <time>2025-04-10T13:26:04.000Z</time>
      </trkpt>
      <trkpt lat="44.32916" lon="0.88004">
        <ele>128.4</ele>
        <time>2025-04-10T13:26:12.000Z</time>
      </trkpt>
      <trkpt lat="44.32924" lon="0.88013">
        <ele>127.9</ele>
        <time>2025-04-10T13:26:21.000Z</time>
      </trkpt>
      <trkpt lat="44.32933" lon="0.8802">
        <ele>127.4</ele>
        <time>2025-04-10T13:26:29.000Z</time>
      </trkpt>
      <trkpt lat="44.32941" lon="0.88029">
        <ele>126.8</ele>
        <time>2025-04-10T13:26:37.000Z</time>
      </trkpt>
      <trkpt lat="44.32948" lon="0.88041">
        <ele>126</ele>
        <time>2025-04-10T13:26:46.000Z</time>
      </trkpt>
      <trkpt lat="44.32956" lon="0.88053">
        <ele>125.1</ele>
        <time>2025-04-10T13:26:54.000Z</time>
      </trkpt>
      <trkpt lat="44.32961" lon="0.88066">
        <ele>125.4</ele>
        <time>2025-04-10T13:27:02.000Z</time>
      </trkpt>
      <trkpt lat="44.32963" lon="0.88079">
        <ele>126.1</ele>
        <time>2025-04-10T13:27:10.000Z</time>
      </trkpt>
      <trkpt lat="44.32963" lon="0.88092">
        <ele>127</ele>
        <time>2025-04-10T13:27:18.000Z</time>
      </trkpt>
      <trkpt lat="44.32963" lon="0.88107">
        <ele>128</ele>
        <time>2025-04-10T13:27:26.000Z</time>
      </trkpt>
      <trkpt lat="44.32963" lon="0.88119">
        <ele>129.1</ele>
        <time>2025-04-10T13:27:34.000Z</time>
      </trkpt>
      <trkpt lat="44.3297" lon="0.88125">
        <ele>130.4</ele>
        <time>2025-04-10T13:27:44.000Z</time>
      </trkpt>
      <trkpt lat="44.3298" lon="0.88125">
        <ele>131</ele>
        <time>2025-04-10T13:27:54.000Z</time>
      </trkpt>
      <trkpt lat="44.32988" lon="0.88125">
        <ele>131.4</ele>
        <time>2025-04-10T13:28:20.000Z</time>
      </trkpt>
      <trkpt lat="44.32989" lon="0.88135">
        <ele>132.3</ele>
        <time>2025-04-10T13:33:00.000Z</time>
      </trkpt>
      <trkpt lat="44.32994" lon="0.88145">
        <ele>133.8</ele>
        <time>2025-04-10T13:33:10.000Z</time>
      </trkpt>
      <trkpt lat="44.33002" lon="0.88152">
        <ele>135.4</ele>
        <time>2025-04-10T13:33:24.000Z</time>
      </trkpt>
      <trkpt lat="44.33008" lon="0.8816">
        <ele>137.9</ele>
        <time>2025-04-10T13:33:40.000Z</time>
      </trkpt>
      <trkpt lat="44.33016" lon="0.88168">
        <ele>140.4</ele>
        <time>2025-04-10T13:33:54.000Z</time>
      </trkpt>
      <trkpt lat="44.33023" lon="0.88175">
        <ele>142.3</ele>
        <time>2025-04-10T13:34:08.000Z</time>
      </trkpt>
      <trkpt lat="44.33029" lon="0.88184">
        <ele>144.5</ele>
        <time>2025-04-10T13:34:28.000Z</time>
      </trkpt>
      <trkpt lat="44.33035" lon="0.88192">
        <ele>146.1</ele>
        <time>2025-04-10T13:34:44.000Z</time>
      </trkpt>
      <trkpt lat="44.33042" lon="0.882">
        <ele>147.8</ele>
        <time>2025-04-10T13:34:58.000Z</time>
      </trkpt>
      <trkpt lat="44.33049" lon="0.88207">
        <ele>149.6</ele>
        <time>2025-04-10T13:35:10.000Z</time>
      </trkpt>
      <trkpt lat="44.33054" lon="0.88218">
        <ele>152</ele>
        <time>2025-04-10T13:35:22.000Z</time>
      </trkpt>
      <trkpt lat="44.33062" lon="0.88226">
        <ele>154.2</ele>
        <time>2025-04-10T13:35:38.000Z</time>
      </trkpt>
      <trkpt lat="44.33071" lon="0.88229">
        <ele>155.8</ele>
        <time>2025-04-10T13:35:54.000Z</time>
      </trkpt>
      <trkpt lat="44.33079" lon="0.88227">
        <ele>156.8</ele>
        <time>2025-04-10T13:36:07.000Z</time>
      </trkpt>
      <trkpt lat="44.33087" lon="0.88222">
        <ele>157.4</ele>
        <time>2025-04-10T13:36:20.000Z</time>
      </trkpt>
      <trkpt lat="44.33096" lon="0.88216">
        <ele>157.6</ele>
        <time>2025-04-10T13:36:30.000Z</time>
      </trkpt>
      <trkpt lat="44.33104" lon="0.88213">
        <ele>158.4</ele>
        <time>2025-04-10T13:36:42.000Z</time>
      </trkpt>
      <trkpt lat="44.33113" lon="0.88214">
        <ele>159.5</ele>
        <time>2025-04-10T13:36:54.000Z</time>
      </trkpt>
      <trkpt lat="44.33122" lon="0.88219">
        <ele>160.5</ele>
        <time>2025-04-10T13:37:04.000Z</time>
      </trkpt>
      <trkpt lat="44.33131" lon="0.88221">
        <ele>161.3</ele>
        <time>2025-04-10T13:37:14.000Z</time>
      </trkpt>
      <trkpt lat="44.3314" lon="0.88219">
        <ele>162</ele>
        <time>2025-04-10T13:37:26.000Z</time>
      </trkpt>
      <trkpt lat="44.33149" lon="0.88219">
        <ele>163.6</ele>
        <time>2025-04-10T13:37:36.000Z</time>
      </trkpt>
      <trkpt lat="44.33159" lon="0.8822">
        <ele>165.3</ele>
        <time>2025-04-10T13:37:46.000Z</time>
      </trkpt>
      <trkpt lat="44.33169" lon="0.88219">
        <ele>166.8</ele>
        <time>2025-04-10T13:38:02.000Z</time>
      </trkpt>
      <trkpt lat="44.33178" lon="0.88217">
        <ele>168.3</ele>
        <time>2025-04-10T13:38:19.000Z</time>
      </trkpt>
      <trkpt lat="44.33186" lon="0.88213">
        <ele>169</ele>
        <time>2025-04-10T13:38:31.000Z</time>
      </trkpt>
      <trkpt lat="44.33193" lon="0.88206">
        <ele>168.9</ele>
        <time>2025-04-10T13:38:41.000Z</time>
      </trkpt>
      <trkpt lat="44.33201" lon="0.882">
        <ele>168.6</ele>
        <time>2025-04-10T13:38:57.000Z</time>
      </trkpt>
      <trkpt lat="44.33211" lon="0.88197">
        <ele>168.8</ele>
        <time>2025-04-10T13:39:13.000Z</time>
      </trkpt>
      <trkpt lat="44.3322" lon="0.882">
        <ele>170.3</ele>
        <time>2025-04-10T13:39:25.000Z</time>
      </trkpt>
      <trkpt lat="44.33229" lon="0.88205">
        <ele>171.8</ele>
        <time>2025-04-10T13:39:59.000Z</time>
      </trkpt>
      <trkpt lat="44.33238" lon="0.88209">
        <ele>173.3</ele>
        <time>2025-04-10T13:40:11.000Z</time>
      </trkpt>
      <trkpt lat="44.33246" lon="0.88217">
        <ele>175.5</ele>
        <time>2025-04-10T13:40:23.000Z</time>
      </trkpt>
      <trkpt lat="44.33254" lon="0.88225">
        <ele>177.7</ele>
        <time>2025-04-10T13:40:37.000Z</time>
      </trkpt>
      <trkpt lat="44.33259" lon="0.88235">
        <ele>180.4</ele>
        <time>2025-04-10T13:40:51.000Z</time>
      </trkpt>
      <trkpt lat="44.33263" lon="0.88246">
        <ele>183.5</ele>
        <time>2025-04-10T13:41:03.000Z</time>
      </trkpt>
      <trkpt lat="44.33265" lon="0.88258">
        <ele>186.6</ele>
        <time>2025-04-10T13:41:19.000Z</time>
      </trkpt>
      <trkpt lat="44.33269" lon="0.8827">
        <ele>189.8</ele>
        <time>2025-04-10T13:41:33.000Z</time>
      </trkpt>
      <trkpt lat="44.33272" lon="0.88282">
        <ele>192.9</ele>
        <time>2025-04-10T13:41:47.000Z</time>
      </trkpt>
      <trkpt lat="44.33279" lon="0.88292">
        <ele>195</ele>
        <time>2025-04-10T13:42:01.000Z</time>
      </trkpt>
      <trkpt lat="44.33287" lon="0.883">
        <ele>195.5</ele>
        <time>2025-04-10T13:42:13.000Z</time>
      </trkpt>
      <trkpt lat="44.33294" lon="0.88308">
        <ele>196</ele>
        <time>2025-04-10T13:42:27.000Z</time>
      </trkpt>
      <trkpt lat="44.333" lon="0.88318">
        <ele>196.8</ele>
        <time>2025-04-10T13:42:35.000Z</time>
      </trkpt>
      <trkpt lat="44.33308" lon="0.88323">
        <ele>196.8</ele>
        <time>2025-04-10T13:42:47.000Z</time>
      </trkpt>
      <trkpt lat="44.33317" lon="0.8833">
        <ele>197.1</ele>
        <time>2025-04-10T13:45:11.000Z</time>
      </trkpt>
      <trkpt lat="44.33327" lon="0.88334">
        <ele>196.9</ele>
        <time>2025-04-10T13:45:22.000Z</time>
      </trkpt>
      <trkpt lat="44.33336" lon="0.88338">
        <ele>196.5</ele>
        <time>2025-04-10T13:45:30.000Z</time>
      </trkpt>
      <trkpt lat="44.33346" lon="0.88341">
        <ele>196.8</ele>
        <time>2025-04-10T13:45:40.000Z</time>
      </trkpt>
      <trkpt lat="44.33354" lon="0.88346">
        <ele>197.4</ele>
        <time>2025-04-10T13:45:50.000Z</time>
      </trkpt>
      <trkpt lat="44.33363" lon="0.88351">
        <ele>198.2</ele>
        <time>2025-04-10T13:46:03.000Z</time>
      </trkpt>
      <trkpt lat="44.33373" lon="0.88352">
        <ele>199</ele>
        <time>2025-04-10T13:46:12.000Z</time>
      </trkpt>
      <trkpt lat="44.33382" lon="0.88352">
        <ele>199.5</ele>
        <time>2025-04-10T13:46:24.000Z</time>
      </trkpt>
      <trkpt lat="44.3339" lon="0.88354">
        <ele>200.7</ele>
        <time>2025-04-10T13:46:32.000Z</time>
      </trkpt>
      <trkpt lat="44.334" lon="0.88355">
        <ele>202.2</ele>
        <time>2025-04-10T13:46:45.000Z</time>
      </trkpt>
      <trkpt lat="44.33408" lon="0.88358">
        <ele>204.2</ele>
        <time>2025-04-10T13:46:56.000Z</time>
      </trkpt>
      <trkpt lat="44.33415" lon="0.88367">
        <ele>206.4</ele>
        <time>2025-04-10T13:47:06.000Z</time>
      </trkpt>
      <trkpt lat="44.33422" lon="0.88378">
        <ele>208.3</ele>
        <time>2025-04-10T13:47:17.000Z</time>
      </trkpt>
      <trkpt lat="44.3343" lon="0.88386">
        <ele>209.6</ele>
        <time>2025-04-10T13:47:25.000Z</time>
      </trkpt>
      <trkpt lat="44.33438" lon="0.88392">
        <ele>210.6</ele>
        <time>2025-04-10T13:47:35.000Z</time>
      </trkpt>
      <trkpt lat="44.33445" lon="0.88399">
        <ele>211.4</ele>
        <time>2025-04-10T13:47:45.000Z</time>
      </trkpt>
      <trkpt lat="44.3345" lon="0.88412">
        <ele>212</ele>
        <time>2025-04-10T13:47:57.000Z</time>
      </trkpt>
      <trkpt lat="44.33451" lon="0.88426">
        <ele>212.5</ele>
        <time>2025-04-10T13:48:09.000Z</time>
      </trkpt>
      <trkpt lat="44.33449" lon="0.8844">
        <ele>212.9</ele>
        <time>2025-04-10T13:48:17.000Z</time>
      </trkpt>
      <trkpt lat="44.33448" lon="0.88452">
        <ele>213</ele>
        <time>2025-04-10T13:48:27.000Z</time>
      </trkpt>
      <trkpt lat="44.33448" lon="0.88465">
        <ele>213</ele>
        <time>2025-04-10T13:48:35.000Z</time>
      </trkpt>
      <trkpt lat="44.33448" lon="0.88478">
        <ele>213</ele>
        <time>2025-04-10T13:48:45.000Z</time>
      </trkpt>
      <trkpt lat="44.33449" lon="0.88492">
        <ele>213</ele>
        <time>2025-04-10T13:48:55.000Z</time>
      </trkpt>
      <trkpt lat="44.33449" lon="0.88507">
        <ele>213</ele>
        <time>2025-04-10T13:49:05.000Z</time>
      </trkpt>
      <trkpt lat="44.33451" lon="0.8852">
        <ele>213</ele>
        <time>2025-04-10T13:49:15.000Z</time>
      </trkpt>
      <trkpt lat="44.33452" lon="0.88533">
        <ele>213</ele>
        <time>2025-04-10T13:49:27.000Z</time>
      </trkpt>
      <trkpt lat="44.33459" lon="0.88539">
        <ele>213</ele>
        <time>2025-04-10T13:49:41.000Z</time>
      </trkpt>
      <trkpt lat="44.33469" lon="0.88541">
        <ele>213</ele>
        <time>2025-04-10T13:49:53.000Z</time>
      </trkpt>
      <trkpt lat="44.33478" lon="0.88544">
        <ele>213</ele>
        <time>2025-04-10T13:50:03.000Z</time>
      </trkpt>
      <trkpt lat="44.33487" lon="0.88547">
        <ele>213</ele>
        <time>2025-04-10T13:50:13.000Z</time>
      </trkpt>
      <trkpt lat="44.33497" lon="0.88549">
        <ele>213</ele>
        <time>2025-04-10T13:50:21.000Z</time>
      </trkpt>
      <trkpt lat="44.33507" lon="0.88547">
        <ele>212.9</ele>
        <time>2025-04-10T13:50:31.000Z</time>
      </trkpt>
      <trkpt lat="44.33516" lon="0.88549">
        <ele>212.9</ele>
        <time>2025-04-10T13:50:39.000Z</time>
      </trkpt>
      <trkpt lat="44.33525" lon="0.88553">
        <ele>212.9</ele>
        <time>2025-04-10T13:50:49.000Z</time>
      </trkpt>
      <trkpt lat="44.33535" lon="0.88556">
        <ele>212.7</ele>
        <time>2025-04-10T13:50:55.000Z</time>
      </trkpt>
      <trkpt lat="44.33546" lon="0.88559">
        <ele>212.3</ele>
        <time>2025-04-10T13:51:05.000Z</time>
      </trkpt>
      <trkpt lat="44.33556" lon="0.88562">
        <ele>212</ele>
        <time>2025-04-10T13:51:13.000Z</time>
      </trkpt>
      <trkpt lat="44.33565" lon="0.88566">
        <ele>212</ele>
        <time>2025-04-10T13:51:21.000Z</time>
      </trkpt>
      <trkpt lat="44.33575" lon="0.88571">
        <ele>212</ele>
        <time>2025-04-10T13:51:29.000Z</time>
      </trkpt>
      <trkpt lat="44.33586" lon="0.88575">
        <ele>212.1</ele>
        <time>2025-04-10T13:51:39.000Z</time>
      </trkpt>
      <trkpt lat="44.33595" lon="0.88578">
        <ele>212.3</ele>
        <time>2025-04-10T13:51:47.000Z</time>
      </trkpt>
      <trkpt lat="44.33605" lon="0.88582">
        <ele>212.7</ele>
        <time>2025-04-10T13:51:55.000Z</time>
      </trkpt>
      <trkpt lat="44.33615" lon="0.88583">
        <ele>213</ele>
        <time>2025-04-10T13:52:04.000Z</time>
      </trkpt>
      <trkpt lat="44.33624" lon="0.88585">
        <ele>213</ele>
        <time>2025-04-10T13:52:12.000Z</time>
      </trkpt>
      <trkpt lat="44.33635" lon="0.8859">
        <ele>213</ele>
        <time>2025-04-10T13:52:21.000Z</time>
      </trkpt>
      <trkpt lat="44.33643" lon="0.88594">
        <ele>213.2</ele>
        <time>2025-04-10T13:52:29.000Z</time>
      </trkpt>
      <trkpt lat="44.33652" lon="0.88598">
        <ele>213.5</ele>
        <time>2025-04-10T13:52:40.000Z</time>
      </trkpt>
      <trkpt lat="44.33661" lon="0.88602">
        <ele>213.8</ele>
        <time>2025-04-10T13:52:48.000Z</time>
      </trkpt>
      <trkpt lat="44.3367" lon="0.88607">
        <ele>214</ele>
        <time>2025-04-10T13:52:56.000Z</time>
      </trkpt>
      <trkpt lat="44.3368" lon="0.88611">
        <ele>214</ele>
        <time>2025-04-10T13:53:06.000Z</time>
      </trkpt>
      <trkpt lat="44.3369" lon="0.88614">
        <ele>214.1</ele>
        <time>2025-04-10T13:53:14.000Z</time>
      </trkpt>
      <trkpt lat="44.337" lon="0.88618">
        <ele>214.2</ele>
        <time>2025-04-10T13:53:23.000Z</time>
      </trkpt>
      <trkpt lat="44.3371" lon="0.88622">
        <ele>214.4</ele>
        <time>2025-04-10T13:53:31.000Z</time>
      </trkpt>
      <trkpt lat="44.33718" lon="0.88626">
        <ele>214.5</ele>
        <time>2025-04-10T13:53:40.000Z</time>
      </trkpt>
      <trkpt lat="44.33727" lon="0.88633">
        <ele>214.8</ele>
        <time>2025-04-10T13:53:48.000Z</time>
      </trkpt>
      <trkpt lat="44.33735" lon="0.8864">
        <ele>215</ele>
        <time>2025-04-10T13:53:56.000Z</time>
      </trkpt>
      <trkpt lat="44.33745" lon="0.88646">
        <ele>215.2</ele>
        <time>2025-04-10T13:54:04.000Z</time>
      </trkpt>
      <trkpt lat="44.33755" lon="0.8865">
        <ele>215.2</ele>
        <time>2025-04-10T13:54:14.000Z</time>
      </trkpt>
      <trkpt lat="44.33764" lon="0.88655">
        <ele>215.1</ele>
        <time>2025-04-10T13:54:24.000Z</time>
      </trkpt>
      <trkpt lat="44.33774" lon="0.88658">
        <ele>214.8</ele>
        <time>2025-04-10T13:54:33.000Z</time>
      </trkpt>
      <trkpt lat="44.33783" lon="0.88663">
        <ele>214.7</ele>
        <time>2025-04-10T13:54:41.000Z</time>
      </trkpt>
      <trkpt lat="44.33792" lon="0.88667">
        <ele>214.5</ele>
        <time>2025-04-10T13:54:49.000Z</time>
      </trkpt>
      <trkpt lat="44.33802" lon="0.88668">
        <ele>214.1</ele>
        <time>2025-04-10T13:55:00.000Z</time>
      </trkpt>
      <trkpt lat="44.33812" lon="0.88673">
        <ele>213.6</ele>
        <time>2025-04-10T13:55:08.000Z</time>
      </trkpt>
      <trkpt lat="44.3382" lon="0.88675">
        <ele>213.1</ele>
        <time>2025-04-10T13:55:16.000Z</time>
      </trkpt>
      <trkpt lat="44.33828" lon="0.8868">
        <ele>212.8</ele>
        <time>2025-04-10T13:55:26.000Z</time>
      </trkpt>
      <trkpt lat="44.33837" lon="0.88687">
        <ele>212.7</ele>
        <time>2025-04-10T13:55:36.000Z</time>
      </trkpt>
      <trkpt lat="44.33847" lon="0.88691">
        <ele>212.8</ele>
        <time>2025-04-10T13:55:44.000Z</time>
      </trkpt>
      <trkpt lat="44.33856" lon="0.88693">
        <ele>212.9</ele>
        <time>2025-04-10T13:55:54.000Z</time>
      </trkpt>
      <trkpt lat="44.33866" lon="0.88694">
        <ele>213.1</ele>
        <time>2025-04-10T13:56:02.000Z</time>
      </trkpt>
      <trkpt lat="44.33875" lon="0.88691">
        <ele>213.3</ele>
        <time>2025-04-10T13:56:10.000Z</time>
      </trkpt>
      <trkpt lat="44.33883" lon="0.88687">
        <ele>213.5</ele>
        <time>2025-04-10T13:56:20.000Z</time>
      </trkpt>
      <trkpt lat="44.33892" lon="0.88683">
        <ele>213.8</ele>
        <time>2025-04-10T13:56:30.000Z</time>
      </trkpt>
      <trkpt lat="44.33902" lon="0.8868">
        <ele>214.4</ele>
        <time>2025-04-10T13:56:38.000Z</time>
      </trkpt>
      <trkpt lat="44.33912" lon="0.8868">
        <ele>215.1</ele>
        <time>2025-04-10T13:56:46.000Z</time>
      </trkpt>
      <trkpt lat="44.33922" lon="0.88681">
        <ele>215.7</ele>
        <time>2025-04-10T13:56:54.000Z</time>
      </trkpt>
      <trkpt lat="44.33933" lon="0.8868">
        <ele>216</ele>
        <time>2025-04-10T13:57:06.000Z</time>
      </trkpt>
      <trkpt lat="44.33942" lon="0.88681">
        <ele>216.4</ele>
        <time>2025-04-10T13:57:16.000Z</time>
      </trkpt>
      <trkpt lat="44.33951" lon="0.88682">
        <ele>216.8</ele>
        <time>2025-04-10T13:57:26.000Z</time>
      </trkpt>
      <trkpt lat="44.33961" lon="0.8868">
        <ele>217.1</ele>
        <time>2025-04-10T13:57:37.000Z</time>
      </trkpt>
      <trkpt lat="44.33972" lon="0.88679">
        <ele>217.4</ele>
        <time>2025-04-10T13:57:45.000Z</time>
      </trkpt>
      <trkpt lat="44.33982" lon="0.88679">
        <ele>217.4</ele>
        <time>2025-04-10T13:57:53.000Z</time>
      </trkpt>
      <trkpt lat="44.33991" lon="0.8868">
        <ele>217.5</ele>
        <time>2025-04-10T13:58:03.000Z</time>
      </trkpt>
      <trkpt lat="44.34001" lon="0.88684">
        <ele>217.6</ele>
        <time>2025-04-10T13:58:10.000Z</time>
      </trkpt>
      <trkpt lat="44.3401" lon="0.88686">
        <ele>217.7</ele>
        <time>2025-04-10T13:58:18.000Z</time>
      </trkpt>
      <trkpt lat="44.3402" lon="0.88687">
        <ele>217.7</ele>
        <time>2025-04-10T13:58:26.000Z</time>
      </trkpt>
      <trkpt lat="44.34029" lon="0.88688">
        <ele>217.7</ele>
        <time>2025-04-10T13:58:34.000Z</time>
      </trkpt>
      <trkpt lat="44.3404" lon="0.88689">
        <ele>217.4</ele>
        <time>2025-04-10T13:58:45.000Z</time>
      </trkpt>
      <trkpt lat="44.34052" lon="0.88688">
        <ele>216.9</ele>
        <time>2025-04-10T13:58:53.000Z</time>
      </trkpt>
      <trkpt lat="44.34062" lon="0.88685">
        <ele>216.7</ele>
        <time>2025-04-10T13:58:59.000Z</time>
      </trkpt>
      <trkpt lat="44.34071" lon="0.88686">
        <ele>216.7</ele>
        <time>2025-04-10T13:59:07.000Z</time>
      </trkpt>
      <trkpt lat="44.34082" lon="0.88687">
        <ele>216.7</ele>
        <time>2025-04-10T13:59:15.000Z</time>
      </trkpt>
      <trkpt lat="44.34092" lon="0.88689">
        <ele>217.1</ele>
        <time>2025-04-10T13:59:23.000Z</time>
      </trkpt>
      <trkpt lat="44.34101" lon="0.88693">
        <ele>217.6</ele>
        <time>2025-04-10T13:59:31.000Z</time>
      </trkpt>
      <trkpt lat="44.34109" lon="0.88695">
        <ele>218</ele>
        <time>2025-04-10T13:59:39.000Z</time>
      </trkpt>
      <trkpt lat="44.34118" lon="0.88698">
        <ele>218.4</ele>
        <time>2025-04-10T13:59:47.000Z</time>
      </trkpt>
      <trkpt lat="44.34128" lon="0.88702">
        <ele>218.9</ele>
        <time>2025-04-10T13:59:55.000Z</time>
      </trkpt>
      <trkpt lat="44.34137" lon="0.88708">
        <ele>219.4</ele>
        <time>2025-04-10T14:00:03.000Z</time>
      </trkpt>
      <trkpt lat="44.34146" lon="0.88712">
        <ele>219.7</ele>
        <time>2025-04-10T14:00:13.000Z</time>
      </trkpt>
      <trkpt lat="44.34156" lon="0.88714">
        <ele>219.9</ele>
        <time>2025-04-10T14:00:27.000Z</time>
      </trkpt>
      <trkpt lat="44.34165" lon="0.88712">
        <ele>220</ele>
        <time>2025-04-10T14:00:37.000Z</time>
      </trkpt>
      <trkpt lat="44.34174" lon="0.88712">
        <ele>219.7</ele>
        <time>2025-04-10T14:01:55.000Z</time>
      </trkpt>
      <trkpt lat="44.34182" lon="0.88711">
        <ele>219.4</ele>
        <time>2025-04-10T14:02:29.000Z</time>
      </trkpt>
      <trkpt lat="44.34192" lon="0.88715">
        <ele>219.1</ele>
        <time>2025-04-10T14:02:37.000Z</time>
      </trkpt>
      <trkpt lat="44.34201" lon="0.88719">
        <ele>218.5</ele>
        <time>2025-04-10T14:02:49.000Z</time>
      </trkpt>
      <trkpt lat="44.3421" lon="0.88721">
        <ele>217.8</ele>
        <time>2025-04-10T14:02:55.000Z</time>
      </trkpt>
      <trkpt lat="44.3422" lon="0.88724">
        <ele>217.2</ele>
        <time>2025-04-10T14:03:05.000Z</time>
      </trkpt>
      <trkpt lat="44.34229" lon="0.88725">
        <ele>216</ele>
        <time>2025-04-10T14:03:13.000Z</time>
      </trkpt>
      <trkpt lat="44.34238" lon="0.88727">
        <ele>214.7</ele>
        <time>2025-04-10T14:03:21.000Z</time>
      </trkpt>
      <trkpt lat="44.34248" lon="0.88727">
        <ele>213.3</ele>
        <time>2025-04-10T14:03:29.000Z</time>
      </trkpt>
      <trkpt lat="44.34257" lon="0.88729">
        <ele>212.2</ele>
        <time>2025-04-10T14:03:39.000Z</time>
      </trkpt>
      <trkpt lat="44.34267" lon="0.88728">
        <ele>211.2</ele>
        <time>2025-04-10T14:03:47.000Z</time>
      </trkpt>
      <trkpt lat="44.34276" lon="0.88727">
        <ele>210.1</ele>
        <time>2025-04-10T14:03:55.000Z</time>
      </trkpt>
      <trkpt lat="44.34286" lon="0.88731">
        <ele>209.2</ele>
        <time>2025-04-10T14:04:03.000Z</time>
      </trkpt>
      <trkpt lat="44.34295" lon="0.88737">
        <ele>208.5</ele>
        <time>2025-04-10T14:04:11.000Z</time>
      </trkpt>
      <trkpt lat="44.34305" lon="0.88741">
        <ele>207.7</ele>
        <time>2025-04-10T14:04:19.000Z</time>
      </trkpt>
      <trkpt lat="44.34313" lon="0.88746">
        <ele>207.6</ele>
        <time>2025-04-10T14:04:27.000Z</time>
      </trkpt>
      <trkpt lat="44.3432" lon="0.88753">
        <ele>207.6</ele>
        <time>2025-04-10T14:04:37.000Z</time>
      </trkpt>
      <trkpt lat="44.3433" lon="0.88756">
        <ele>207.5</ele>
        <time>2025-04-10T14:04:48.000Z</time>
      </trkpt>
      <trkpt lat="44.3434" lon="0.88758">
        <ele>207.8</ele>
        <time>2025-04-10T14:04:58.000Z</time>
      </trkpt>
      <trkpt lat="44.34349" lon="0.8876">
        <ele>208.5</ele>
        <time>2025-04-10T14:05:07.000Z</time>
      </trkpt>
      <trkpt lat="44.3436" lon="0.88758">
        <ele>208.8</ele>
        <time>2025-04-10T14:05:16.000Z</time>
      </trkpt>
      <trkpt lat="44.34369" lon="0.88752">
        <ele>208.7</ele>
        <time>2025-04-10T14:05:26.000Z</time>
      </trkpt>
      <trkpt lat="44.34375" lon="0.88744">
        <ele>208.5</ele>
        <time>2025-04-10T14:05:36.000Z</time>
      </trkpt>
      <trkpt lat="44.34383" lon="0.88735">
        <ele>208.5</ele>
        <time>2025-04-10T14:05:46.000Z</time>
      </trkpt>
      <trkpt lat="44.3439" lon="0.88725">
        <ele>208.3</ele>
        <time>2025-04-10T14:05:55.000Z</time>
      </trkpt>
      <trkpt lat="44.34395" lon="0.88714">
        <ele>207.6</ele>
        <time>2025-04-10T14:06:03.000Z</time>
      </trkpt>
      <trkpt lat="44.344" lon="0.88702">
        <ele>206.8</ele>
        <time>2025-04-10T14:06:13.000Z</time>
      </trkpt>
      <trkpt lat="44.34404" lon="0.88691">
        <ele>206.4</ele>
        <time>2025-04-10T14:06:21.000Z</time>
      </trkpt>
      <trkpt lat="44.34409" lon="0.8868">
        <ele>206.4</ele>
        <time>2025-04-10T14:06:29.000Z</time>
      </trkpt>
      <trkpt lat="44.34415" lon="0.88669">
        <ele>206.8</ele>
        <time>2025-04-10T14:06:37.000Z</time>
      </trkpt>
      <trkpt lat="44.34422" lon="0.88659">
        <ele>206.5</ele>
        <time>2025-04-10T14:06:45.000Z</time>
      </trkpt>
      <trkpt lat="44.34429" lon="0.88651">
        <ele>206.2</ele>
        <time>2025-04-10T14:06:53.000Z</time>
      </trkpt>
      <trkpt lat="44.34436" lon="0.88643">
        <ele>206.3</ele>
        <time>2025-04-10T14:07:01.000Z</time>
      </trkpt>
      <trkpt lat="44.34444" lon="0.88637">
        <ele>206.8</ele>
        <time>2025-04-10T14:07:09.000Z</time>
      </trkpt>
      <trkpt lat="44.34452" lon="0.88629">
        <ele>206.8</ele>
        <time>2025-04-10T14:07:17.000Z</time>
      </trkpt>
      <trkpt lat="44.3446" lon="0.88623">
        <ele>206.7</ele>
        <time>2025-04-10T14:07:23.000Z</time>
      </trkpt>
      <trkpt lat="44.3447" lon="0.88619">
        <ele>206.9</ele>
        <time>2025-04-10T14:07:31.000Z</time>
      </trkpt>
      <trkpt lat="44.34479" lon="0.88614">
        <ele>206.8</ele>
        <time>2025-04-10T14:07:39.000Z</time>
      </trkpt>
      <trkpt lat="44.34486" lon="0.88606">
        <ele>206.2</ele>
        <time>2025-04-10T14:07:51.000Z</time>
      </trkpt>
      <trkpt lat="44.34496" lon="0.88602">
        <ele>205.8</ele>
        <time>2025-04-10T14:08:01.000Z</time>
      </trkpt>
      <trkpt lat="44.34506" lon="0.88599">
        <ele>205.4</ele>
        <time>2025-04-10T14:08:09.000Z</time>
      </trkpt>
      <trkpt lat="44.34513" lon="0.88594">
        <ele>205.2</ele>
        <time>2025-04-10T14:08:17.000Z</time>
      </trkpt>
      <trkpt lat="44.34523" lon="0.88588">
        <ele>205</ele>
        <time>2025-04-10T14:08:29.000Z</time>
      </trkpt>
      <trkpt lat="44.34512" lon="0.88581">
        <ele>205.1</ele>
        <time>2025-04-10T14:08:35.000Z</time>
      </trkpt>
      <trkpt lat="44.34505" lon="0.88571">
        <ele>205.2</ele>
        <time>2025-04-10T14:08:45.000Z</time>
      </trkpt>
      <trkpt lat="44.34497" lon="0.88562">
        <ele>204.8</ele>
        <time>2025-04-10T14:08:54.000Z</time>
      </trkpt>
      <trkpt lat="44.3449" lon="0.88555">
        <ele>203.9</ele>
        <time>2025-04-10T14:09:04.000Z</time>
      </trkpt>
      <trkpt lat="44.34482" lon="0.88549">
        <ele>202.8</ele>
        <time>2025-04-10T14:09:12.000Z</time>
      </trkpt>
      <trkpt lat="44.34474" lon="0.88544">
        <ele>201.4</ele>
        <time>2025-04-10T14:10:23.000Z</time>
      </trkpt>
      <trkpt lat="44.34465" lon="0.88539">
        <ele>198.5</ele>
        <time>2025-04-10T14:10:31.000Z</time>
      </trkpt>
      <trkpt lat="44.34457" lon="0.88531">
        <ele>195</ele>
        <time>2025-04-10T14:10:43.000Z</time>
      </trkpt>
      <trkpt lat="44.34449" lon="0.88522">
        <ele>191.7</ele>
        <time>2025-04-10T14:10:53.000Z</time>
      </trkpt>
      <trkpt lat="44.34441" lon="0.88517">
        <ele>189.3</ele>
        <time>2025-04-10T14:11:06.000Z</time>
      </trkpt>
      <trkpt lat="44.34433" lon="0.8851">
        <ele>187.5</ele>
        <time>2025-04-10T14:11:14.000Z</time>
      </trkpt>
      <trkpt lat="44.34426" lon="0.88502">
        <ele>185.5</ele>
        <time>2025-04-10T14:11:22.000Z</time>
      </trkpt>
      <trkpt lat="44.34419" lon="0.88495">
        <ele>183.6</ele>
        <time>2025-04-10T14:11:30.000Z</time>
      </trkpt>
      <trkpt lat="44.34411" lon="0.88491">
        <ele>182.3</ele>
        <time>2025-04-10T14:11:38.000Z</time>
      </trkpt>
      <trkpt lat="44.34402" lon="0.88489">
        <ele>181.2</ele>
        <time>2025-04-10T14:11:46.000Z</time>
      </trkpt>
      <trkpt lat="44.34394" lon="0.88484">
        <ele>180</ele>
        <time>2025-04-10T14:11:56.000Z</time>
      </trkpt>
      <trkpt lat="44.34385" lon="0.88477">
        <ele>179.4</ele>
        <time>2025-04-10T14:12:10.000Z</time>
      </trkpt>
      <trkpt lat="44.34374" lon="0.88474">
        <ele>179.7</ele>
        <time>2025-04-10T14:12:22.000Z</time>
      </trkpt>
      <trkpt lat="44.34365" lon="0.88465">
        <ele>179.2</ele>
        <time>2025-04-10T14:12:32.000Z</time>
      </trkpt>
      <trkpt lat="44.34357" lon="0.88456">
        <ele>178.7</ele>
        <time>2025-04-10T14:12:40.000Z</time>
      </trkpt>
      <trkpt lat="44.34351" lon="0.88446">
        <ele>177.9</ele>
        <time>2025-04-10T14:12:50.000Z</time>
      </trkpt>
      <trkpt lat="44.34346" lon="0.88436">
        <ele>176.8</ele>
        <time>2025-04-10T14:13:01.000Z</time>
      </trkpt>
      <trkpt lat="44.34341" lon="0.88427">
        <ele>175.6</ele>
        <time>2025-04-10T14:13:13.000Z</time>
      </trkpt>
      <trkpt lat="44.3433" lon="0.88428">
        <ele>176.2</ele>
        <time>2025-04-10T14:13:17.000Z</time>
      </trkpt>
      <trkpt lat="44.34322" lon="0.88422">
        <ele>175.5</ele>
        <time>2025-04-10T14:13:25.000Z</time>
      </trkpt>
      <trkpt lat="44.34313" lon="0.88416">
        <ele>174.6</ele>
        <time>2025-04-10T14:13:37.000Z</time>
      </trkpt>
      <trkpt lat="44.34303" lon="0.88413">
        <ele>174.2</ele>
        <time>2025-04-10T14:13:45.000Z</time>
      </trkpt>
      <trkpt lat="44.34294" lon="0.88413">
        <ele>173.9</ele>
        <time>2025-04-10T14:13:55.000Z</time>
      </trkpt>
      <trkpt lat="44.34285" lon="0.88416">
        <ele>174</ele>
        <time>2025-04-10T14:14:03.000Z</time>
      </trkpt>
      <trkpt lat="44.34274" lon="0.88422">
        <ele>175.2</ele>
        <time>2025-04-10T14:14:11.000Z</time>
      </trkpt>
      <trkpt lat="44.34265" lon="0.88427">
        <ele>175.4</ele>
        <time>2025-04-10T14:14:17.000Z</time>
      </trkpt>
      <trkpt lat="44.34256" lon="0.88427">
        <ele>174.5</ele>
        <time>2025-04-10T14:14:25.000Z</time>
      </trkpt>
      <trkpt lat="44.34247" lon="0.88427">
        <ele>173.3</ele>
        <time>2025-04-10T14:14:33.000Z</time>
      </trkpt>
      <trkpt lat="44.34236" lon="0.88428">
        <ele>172.1</ele>
        <time>2025-04-10T14:14:41.000Z</time>
      </trkpt>
      <trkpt lat="44.34226" lon="0.88428">
        <ele>170.9</ele>
        <time>2025-04-10T14:14:49.000Z</time>
      </trkpt>
      <trkpt lat="44.34217" lon="0.88427">
        <ele>169.8</ele>
        <time>2025-04-10T14:14:57.000Z</time>
      </trkpt>
      <trkpt lat="44.34209" lon="0.88425">
        <ele>168.7</ele>
        <time>2025-04-10T14:15:05.000Z</time>
      </trkpt>
      <trkpt lat="44.342" lon="0.8842">
        <ele>167.2</ele>
        <time>2025-04-10T14:15:13.000Z</time>
      </trkpt>
      <trkpt lat="44.34191" lon="0.88427">
        <ele>168.1</ele>
        <time>2025-04-10T14:15:21.000Z</time>
      </trkpt>
      <trkpt lat="44.34181" lon="0.88425">
        <ele>167.8</ele>
        <time>2025-04-10T14:15:27.000Z</time>
      </trkpt>
      <trkpt lat="44.34171" lon="0.8842">
        <ele>166.8</ele>
        <time>2025-04-10T14:15:35.000Z</time>
      </trkpt>
      <trkpt lat="44.34161" lon="0.88419">
        <ele>166.4</ele>
        <time>2025-04-10T14:15:43.000Z</time>
      </trkpt>
      <trkpt lat="44.34152" lon="0.88418">
        <ele>166.2</ele>
        <time>2025-04-10T14:15:49.000Z</time>
      </trkpt>
      <trkpt lat="44.34142" lon="0.88415">
        <ele>165.8</ele>
        <time>2025-04-10T14:15:57.000Z</time>
      </trkpt>
      <trkpt lat="44.34132" lon="0.88412">
        <ele>165.5</ele>
        <time>2025-04-10T14:16:07.000Z</time>
      </trkpt>
      <trkpt lat="44.34123" lon="0.88408">
        <ele>165.4</ele>
        <time>2025-04-10T14:16:15.000Z</time>
      </trkpt>
      <trkpt lat="44.34114" lon="0.88401">
        <ele>164.7</ele>
        <time>2025-04-10T14:16:27.000Z</time>
      </trkpt>
      <trkpt lat="44.34107" lon="0.88393">
        <ele>163.6</ele>
        <time>2025-04-10T14:16:31.000Z</time>
      </trkpt>
      <trkpt lat="44.34102" lon="0.88384">
        <ele>162.5</ele>
        <time>2025-04-10T14:16:40.000Z</time>
      </trkpt>
      <trkpt lat="44.34107" lon="0.8838">
        <ele>162.2</ele>
        <time>2025-04-10T14:16:39.000Z</time>
      </trkpt>
      <trkpt lat="44.34113" lon="0.8837">
        <ele>161.7</ele>
        <time>2025-04-10T14:16:45.000Z</time>
      </trkpt>
      <trkpt lat="44.34119" lon="0.8836">
        <ele>161.3</ele>
        <time>2025-04-10T14:16:55.000Z</time>
      </trkpt>
      <trkpt lat="44.34123" lon="0.88348">
        <ele>161.4</ele>
        <time>2025-04-10T14:17:34.000Z</time>
      </trkpt>
      <trkpt lat="44.34129" lon="0.88337">
        <ele>161.8</ele>
        <time>2025-04-10T14:18:00.000Z</time>
      </trkpt>
      <trkpt lat="44.34134" lon="0.88327">
        <ele>162.8</ele>
        <time>2025-04-10T14:18:10.000Z</time>
      </trkpt>
      <trkpt lat="44.3414" lon="0.88316">
        <ele>164.4</ele>
        <time>2025-04-10T14:18:20.000Z</time>
      </trkpt>
      <trkpt lat="44.34145" lon="0.88306">
        <ele>166</ele>
        <time>2025-04-10T14:18:34.000Z</time>
      </trkpt>
      <trkpt lat="44.34152" lon="0.88297">
        <ele>168</ele>
        <time>2025-04-10T14:18:54.000Z</time>
      </trkpt>
      <trkpt lat="44.34159" lon="0.8828">
        <ele>170.9</ele>
        <time>2025-04-10T14:19:10.000Z</time>
      </trkpt>
      <trkpt lat="44.34165" lon="0.88269">
        <ele>172.9</ele>
        <time>2025-04-10T14:19:22.000Z</time>
      </trkpt>
      <trkpt lat="44.3417" lon="0.88257">
        <ele>174.5</ele>
        <time>2025-04-10T14:19:36.000Z</time>
      </trkpt>
      <trkpt lat="44.34176" lon="0.88245">
        <ele>176.4</ele>
        <time>2025-04-10T14:19:48.000Z</time>
      </trkpt>
      <trkpt lat="44.3418" lon="0.88232">
        <ele>178.6</ele>
        <time>2025-04-10T14:20:06.000Z</time>
      </trkpt>
      <trkpt lat="44.34183" lon="0.88215">
        <ele>181</ele>
        <time>2025-04-10T14:20:28.000Z</time>
      </trkpt>
      <trkpt lat="44.34187" lon="0.88202">
        <ele>183.8</ele>
        <time>2025-04-10T14:20:38.000Z</time>
      </trkpt>
      <trkpt lat="44.3419" lon="0.88191">
        <ele>186.3</ele>
        <time>2025-04-10T14:20:51.000Z</time>
      </trkpt>
      <trkpt lat="44.34193" lon="0.88179">
        <ele>187.8</ele>
        <time>2025-04-10T14:21:03.000Z</time>
      </trkpt>
      <trkpt lat="44.34195" lon="0.88166">
        <ele>188.4</ele>
        <time>2025-04-10T14:21:15.000Z</time>
      </trkpt>
      <trkpt lat="44.34198" lon="0.88154">
        <ele>189.2</ele>
        <time>2025-04-10T14:21:29.000Z</time>
      </trkpt>
      <trkpt lat="44.34199" lon="0.88141">
        <ele>189</ele>
        <time>2025-04-10T14:21:51.000Z</time>
      </trkpt>
      <trkpt lat="44.34198" lon="0.88129">
        <ele>187.4</ele>
        <time>2025-04-10T14:22:09.000Z</time>
      </trkpt>
      <trkpt lat="44.34207" lon="0.8812">
        <ele>190.5</ele>
        <time>2025-04-10T14:22:14.000Z</time>
      </trkpt>
      <trkpt lat="44.34216" lon="0.88113">
        <ele>193.3</ele>
        <time>2025-04-10T14:22:20.000Z</time>
      </trkpt>
      <trkpt lat="44.34223" lon="0.88104">
        <ele>195.3</ele>
        <time>2025-04-10T14:22:35.000Z</time>
      </trkpt>
      <trkpt lat="44.34231" lon="0.88095">
        <ele>196.9</ele>
        <time>2025-04-10T14:22:51.000Z</time>
      </trkpt>
      <trkpt lat="44.34238" lon="0.88087">
        <ele>198.8</ele>
        <time>2025-04-10T14:23:05.000Z</time>
      </trkpt>
      <trkpt lat="44.34244" lon="0.88078">
        <ele>200</ele>
        <time>2025-04-10T14:23:26.000Z</time>
      </trkpt>
      <trkpt lat="44.34253" lon="0.88071">
        <ele>202.4</ele>
        <time>2025-04-10T14:24:00.000Z</time>
      </trkpt>
      <trkpt lat="44.34263" lon="0.88073">
        <ele>204.8</ele>
        <time>2025-04-10T14:24:18.000Z</time>
      </trkpt>
      <trkpt lat="44.34272" lon="0.88076">
        <ele>207.2</ele>
        <time>2025-04-10T14:24:30.000Z</time>
      </trkpt>
      <trkpt lat="44.34279" lon="0.88069">
        <ele>208.1</ele>
        <time>2025-04-10T14:24:50.000Z</time>
      </trkpt>
      <trkpt lat="44.34286" lon="0.88061">
        <ele>208.4</ele>
        <time>2025-04-10T14:26:04.000Z</time>
      </trkpt>
      <trkpt lat="44.34294" lon="0.88055">
        <ele>209.3</ele>
        <time>2025-04-10T14:26:14.000Z</time>
      </trkpt>
      <trkpt lat="44.34301" lon="0.88046">
        <ele>210.3</ele>
        <time>2025-04-10T14:26:46.000Z</time>
      </trkpt>
      <trkpt lat="44.3431" lon="0.88042">
        <ele>211.2</ele>
        <time>2025-04-10T14:27:00.000Z</time>
      </trkpt>
      <trkpt lat="44.34319" lon="0.88037">
        <ele>211.8</ele>
        <time>2025-04-10T14:28:04.000Z</time>
      </trkpt>
      <trkpt lat="44.34328" lon="0.88032">
        <ele>212.5</ele>
        <time>2025-04-10T14:28:14.000Z</time>
      </trkpt>
      <trkpt lat="44.34337" lon="0.88029">
        <ele>213.3</ele>
        <time>2025-04-10T14:28:24.000Z</time>
      </trkpt>
      <trkpt lat="44.34346" lon="0.88027">
        <ele>214.4</ele>
        <time>2025-04-10T14:28:36.000Z</time>
      </trkpt>
      <trkpt lat="44.34354" lon="0.88017">
        <ele>215.1</ele>
        <time>2025-04-10T14:28:42.000Z</time>
      </trkpt>
      <trkpt lat="44.34363" lon="0.88011">
        <ele>216</ele>
        <time>2025-04-10T14:28:50.000Z</time>
      </trkpt>
      <trkpt lat="44.34372" lon="0.88005">
        <ele>216.3</ele>
        <time>2025-04-10T14:28:58.000Z</time>
      </trkpt>
      <trkpt lat="44.34381" lon="0.88">
        <ele>216.7</ele>
        <time>2025-04-10T14:29:08.000Z</time>
      </trkpt>
      <trkpt lat="44.34389" lon="0.87993">
        <ele>217</ele>
        <time>2025-04-10T14:29:16.000Z</time>
      </trkpt>
      <trkpt lat="44.344" lon="0.87987">
        <ele>217.4</ele>
        <time>2025-04-10T14:29:28.000Z</time>
      </trkpt>
      <trkpt lat="44.34413" lon="0.87971">
        <ele>217.8</ele>
        <time>2025-04-10T14:29:54.000Z</time>
      </trkpt>
      <trkpt lat="44.34422" lon="0.87962">
        <ele>217.9</ele>
        <time>2025-04-10T14:30:00.000Z</time>
      </trkpt>
      <trkpt lat="44.34431" lon="0.87955">
        <ele>218.2</ele>
        <time>2025-04-10T14:30:09.000Z</time>
      </trkpt>
      <trkpt lat="44.3444" lon="0.87949">
        <ele>218.7</ele>
        <time>2025-04-10T14:30:17.000Z</time>
      </trkpt>
      <trkpt lat="44.34449" lon="0.87944">
        <ele>219.2</ele>
        <time>2025-04-10T14:30:25.000Z</time>
      </trkpt>
      <trkpt lat="44.34458" lon="0.87938">
        <ele>219.6</ele>
        <time>2025-04-10T14:30:35.000Z</time>
      </trkpt>
      <trkpt lat="44.34466" lon="0.87932">
        <ele>220.1</ele>
        <time>2025-04-10T14:30:43.000Z</time>
      </trkpt>
      <trkpt lat="44.34475" lon="0.87922">
        <ele>220.7</ele>
        <time>2025-04-10T14:30:53.000Z</time>
      </trkpt>
      <trkpt lat="44.34483" lon="0.87913">
        <ele>220.6</ele>
        <time>2025-04-10T14:31:01.000Z</time>
      </trkpt>
      <trkpt lat="44.34488" lon="0.87902">
        <ele>220.7</ele>
        <time>2025-04-10T14:31:09.000Z</time>
      </trkpt>
      <trkpt lat="44.3449" lon="0.8789">
        <ele>221</ele>
        <time>2025-04-10T14:31:17.000Z</time>
      </trkpt>
      <trkpt lat="44.34493" lon="0.87878">
        <ele>221.2</ele>
        <time>2025-04-10T14:31:25.000Z</time>
      </trkpt>
      <trkpt lat="44.34495" lon="0.87865">
        <ele>221.5</ele>
        <time>2025-04-10T14:31:33.000Z</time>
      </trkpt>
      <trkpt lat="44.34496" lon="0.8785">
        <ele>221.3</ele>
        <time>2025-04-10T14:31:41.000Z</time>
      </trkpt>
      <trkpt lat="44.34497" lon="0.87836">
        <ele>220.8</ele>
        <time>2025-04-10T14:31:49.000Z</time>
      </trkpt>
      <trkpt lat="44.34496" lon="0.87822">
        <ele>220.7</ele>
        <time>2025-04-10T14:31:57.000Z</time>
      </trkpt>
      <trkpt lat="44.34495" lon="0.87809">
        <ele>220.6</ele>
        <time>2025-04-10T14:32:05.000Z</time>
      </trkpt>
      <trkpt lat="44.34493" lon="0.87797">
        <ele>220.2</ele>
        <time>2025-04-10T14:32:12.000Z</time>
      </trkpt>
      <trkpt lat="44.34492" lon="0.87783">
        <ele>219.6</ele>
        <time>2025-04-10T14:32:20.000Z</time>
      </trkpt>
      <trkpt lat="44.3449" lon="0.87771">
        <ele>219.2</ele>
        <time>2025-04-10T14:32:27.000Z</time>
      </trkpt>
      <trkpt lat="44.34488" lon="0.87757">
        <ele>218.8</ele>
        <time>2025-04-10T14:32:35.000Z</time>
      </trkpt>
      <trkpt lat="44.34485" lon="0.87743">
        <ele>218.4</ele>
        <time>2025-04-10T14:32:43.000Z</time>
      </trkpt>
      <trkpt lat="44.3448" lon="0.87731">
        <ele>218.1</ele>
        <time>2025-04-10T14:32:49.000Z</time>
      </trkpt>
      <trkpt lat="44.34475" lon="0.87722">
        <ele>218.1</ele>
        <time>2025-04-10T14:32:56.000Z</time>
      </trkpt>
      <trkpt lat="44.34469" lon="0.87712">
        <ele>218.2</ele>
        <time>2025-04-10T14:33:02.000Z</time>
      </trkpt>
      <trkpt lat="44.34464" lon="0.87701">
        <ele>218.4</ele>
        <time>2025-04-10T14:33:10.000Z</time>
      </trkpt>
      <trkpt lat="44.34457" lon="0.8769">
        <ele>218.7</ele>
        <time>2025-04-10T14:33:18.000Z</time>
      </trkpt>
      <trkpt lat="44.3445" lon="0.87681">
        <ele>219.1</ele>
        <time>2025-04-10T14:33:26.000Z</time>
      </trkpt>
      <trkpt lat="44.34445" lon="0.8767">
        <ele>219.7</ele>
        <time>2025-04-10T14:33:34.000Z</time>
      </trkpt>
      <trkpt lat="44.34438" lon="0.8766">
        <ele>219.9</ele>
        <time>2025-04-10T14:33:42.000Z</time>
      </trkpt>
      <trkpt lat="44.34431" lon="0.87651">
        <ele>220.1</ele>
        <time>2025-04-10T14:33:50.000Z</time>
      </trkpt>
      <trkpt lat="44.34425" lon="0.87641">
        <ele>220.8</ele>
        <time>2025-04-10T14:33:58.000Z</time>
      </trkpt>
      <trkpt lat="44.34419" lon="0.8763">
        <ele>221.3</ele>
        <time>2025-04-10T14:34:06.000Z</time>
      </trkpt>
      <trkpt lat="44.34413" lon="0.87621">
        <ele>221.6</ele>
        <time>2025-04-10T14:34:12.000Z</time>
      </trkpt>
      <trkpt lat="44.34406" lon="0.87611">
        <ele>222</ele>
        <time>2025-04-10T14:34:20.000Z</time>
      </trkpt>
      <trkpt lat="44.34401" lon="0.876">
        <ele>222.6</ele>
        <time>2025-04-10T14:34:28.000Z</time>
      </trkpt>
      <trkpt lat="44.34396" lon="0.87589">
        <ele>223.4</ele>
        <time>2025-04-10T14:34:36.000Z</time>
      </trkpt>
      <trkpt lat="44.34392" lon="0.87577">
        <ele>224.3</ele>
        <time>2025-04-10T14:34:44.000Z</time>
      </trkpt>
      <trkpt lat="44.34388" lon="0.87564">
        <ele>225.4</ele>
        <time>2025-04-10T14:34:54.000Z</time>
      </trkpt>
      <trkpt lat="44.34384" lon="0.87553">
        <ele>226.1</ele>
        <time>2025-04-10T14:35:02.000Z</time>
      </trkpt>
      <trkpt lat="44.34376" lon="0.87543">
        <ele>226.2</ele>
        <time>2025-04-10T14:35:10.000Z</time>
      </trkpt>
      <trkpt lat="44.34372" lon="0.8753">
        <ele>226.4</ele>
        <time>2025-04-10T14:35:18.000Z</time>
      </trkpt>
      <trkpt lat="44.34368" lon="0.87517">
        <ele>226.6</ele>
        <time>2025-04-10T14:35:26.000Z</time>
      </trkpt>
      <trkpt lat="44.34364" lon="0.87505">
        <ele>226.9</ele>
        <time>2025-04-10T14:35:34.000Z</time>
      </trkpt>
      <trkpt lat="44.3436" lon="0.87493">
        <ele>226.8</ele>
        <time>2025-04-10T14:35:42.000Z</time>
      </trkpt>
      <trkpt lat="44.34355" lon="0.87482">
        <ele>226.4</ele>
        <time>2025-04-10T14:35:50.000Z</time>
      </trkpt>
      <trkpt lat="44.34348" lon="0.87471">
        <ele>225.9</ele>
        <time>2025-04-10T14:36:10.000Z</time>
      </trkpt>
      <trkpt lat="44.34343" lon="0.8746">
        <ele>225.3</ele>
        <time>2025-04-10T14:36:16.000Z</time>
      </trkpt>
      <trkpt lat="44.34339" lon="0.87448">
        <ele>224.4</ele>
        <time>2025-04-10T14:36:24.000Z</time>
      </trkpt>
      <trkpt lat="44.34336" lon="0.87436">
        <ele>223.8</ele>
        <time>2025-04-10T14:36:32.000Z</time>
      </trkpt>
      <trkpt lat="44.34333" lon="0.87423">
        <ele>223.2</ele>
        <time>2025-04-10T14:36:40.000Z</time>
      </trkpt>
      <trkpt lat="44.34327" lon="0.8741">
        <ele>222.8</ele>
        <time>2025-04-10T14:36:48.000Z</time>
      </trkpt>
      <trkpt lat="44.34321" lon="0.87397">
        <ele>222.3</ele>
        <time>2025-04-10T14:36:56.000Z</time>
      </trkpt>
      <trkpt lat="44.34316" lon="0.87384">
        <ele>222</ele>
        <time>2025-04-10T14:37:04.000Z</time>
      </trkpt>
      <trkpt lat="44.3431" lon="0.87372">
        <ele>222</ele>
        <time>2025-04-10T14:37:12.000Z</time>
      </trkpt>
      <trkpt lat="44.34305" lon="0.87362">
        <ele>222</ele>
        <time>2025-04-10T14:37:20.000Z</time>
      </trkpt>
      <trkpt lat="44.343" lon="0.87351">
        <ele>222</ele>
        <time>2025-04-10T14:37:27.000Z</time>
      </trkpt>
      <trkpt lat="44.34296" lon="0.87338">
        <ele>222</ele>
        <time>2025-04-10T14:37:35.000Z</time>
      </trkpt>
      <trkpt lat="44.34292" lon="0.87326">
        <ele>221.9</ele>
        <time>2025-04-10T14:37:43.000Z</time>
      </trkpt>
      <trkpt lat="44.34288" lon="0.87314">
        <ele>221.6</ele>
        <time>2025-04-10T14:37:51.000Z</time>
      </trkpt>
      <trkpt lat="44.34283" lon="0.87303">
        <ele>221.2</ele>
        <time>2025-04-10T14:37:59.000Z</time>
      </trkpt>
      <trkpt lat="44.34279" lon="0.8729">
        <ele>221.1</ele>
        <time>2025-04-10T14:38:07.000Z</time>
      </trkpt>
      <trkpt lat="44.34274" lon="0.87276">
        <ele>220.9</ele>
        <time>2025-04-10T14:38:15.000Z</time>
      </trkpt>
      <trkpt lat="44.34269" lon="0.87264">
        <ele>220.7</ele>
        <time>2025-04-10T14:38:23.000Z</time>
      </trkpt>
      <trkpt lat="44.34264" lon="0.87252">
        <ele>220.5</ele>
        <time>2025-04-10T14:38:31.000Z</time>
      </trkpt>
      <trkpt lat="44.34259" lon="0.87239">
        <ele>220.3</ele>
        <time>2025-04-10T14:38:39.000Z</time>
      </trkpt>
      <trkpt lat="44.34253" lon="0.87226">
        <ele>220.1</ele>
        <time>2025-04-10T14:38:47.000Z</time>
      </trkpt>
      <trkpt lat="44.34246" lon="0.87214">
        <ele>219.7</ele>
        <time>2025-04-10T14:38:56.000Z</time>
      </trkpt>
      <trkpt lat="44.34239" lon="0.87206">
        <ele>219.2</ele>
        <time>2025-04-10T14:39:02.000Z</time>
      </trkpt>
      <trkpt lat="44.34233" lon="0.87194">
        <ele>218.8</ele>
        <time>2025-04-10T14:39:11.000Z</time>
      </trkpt>
      <trkpt lat="44.34227" lon="0.87182">
        <ele>218.3</ele>
        <time>2025-04-10T14:39:19.000Z</time>
      </trkpt>
      <trkpt lat="44.3422" lon="0.87172">
        <ele>217.7</ele>
        <time>2025-04-10T14:39:27.000Z</time>
      </trkpt>
      <trkpt lat="44.34215" lon="0.87161">
        <ele>217.2</ele>
        <time>2025-04-10T14:39:35.000Z</time>
      </trkpt>
      <trkpt lat="44.34209" lon="0.87149">
        <ele>216.8</ele>
        <time>2025-04-10T14:39:43.000Z</time>
      </trkpt>
      <trkpt lat="44.34202" lon="0.87138">
        <ele>216.5</ele>
        <time>2025-04-10T14:39:51.000Z</time>
      </trkpt>
      <trkpt lat="44.34196" lon="0.87128">
        <ele>216.1</ele>
        <time>2025-04-10T14:39:59.000Z</time>
      </trkpt>
      <trkpt lat="44.34192" lon="0.87118">
        <ele>215.8</ele>
        <time>2025-04-10T14:40:05.000Z</time>
      </trkpt>
      <trkpt lat="44.34187" lon="0.87108">
        <ele>215.6</ele>
        <time>2025-04-10T14:40:11.000Z</time>
      </trkpt>
      <trkpt lat="44.34181" lon="0.87097">
        <ele>215.3</ele>
        <time>2025-04-10T14:40:19.000Z</time>
      </trkpt>
      <trkpt lat="44.34174" lon="0.87084">
        <ele>214.8</ele>
        <time>2025-04-10T14:40:28.000Z</time>
      </trkpt>
      <trkpt lat="44.34168" lon="0.87073">
        <ele>214.1</ele>
        <time>2025-04-10T14:40:36.000Z</time>
      </trkpt>
      <trkpt lat="44.34162" lon="0.87063">
        <ele>213.7</ele>
        <time>2025-04-10T14:40:44.000Z</time>
      </trkpt>
      <trkpt lat="44.34156" lon="0.87053">
        <ele>213.2</ele>
        <time>2025-04-10T14:40:52.000Z</time>
      </trkpt>
      <trkpt lat="44.34149" lon="0.87044">
        <ele>212.6</ele>
        <time>2025-04-10T14:41:00.000Z</time>
      </trkpt>
      <trkpt lat="44.34142" lon="0.87033">
        <ele>212.1</ele>
        <time>2025-04-10T14:41:08.000Z</time>
      </trkpt>
      <trkpt lat="44.34135" lon="0.87024">
        <ele>211.8</ele>
        <time>2025-04-10T14:41:15.000Z</time>
      </trkpt>
      <trkpt lat="44.34128" lon="0.87013">
        <ele>211.4</ele>
        <time>2025-04-10T14:41:24.000Z</time>
      </trkpt>
      <trkpt lat="44.34121" lon="0.87002">
        <ele>211.3</ele>
        <time>2025-04-10T14:41:32.000Z</time>
      </trkpt>
      <trkpt lat="44.34114" lon="0.86992">
        <ele>211.1</ele>
        <time>2025-04-10T14:41:41.000Z</time>
      </trkpt>
      <trkpt lat="44.34106" lon="0.86984">
        <ele>210.9</ele>
        <time>2025-04-10T14:41:47.000Z</time>
      </trkpt>
      <trkpt lat="44.34099" lon="0.86975">
        <ele>211</ele>
        <time>2025-04-10T14:41:56.000Z</time>
      </trkpt>
      <trkpt lat="44.34093" lon="0.86965">
        <ele>211.2</ele>
        <time>2025-04-10T14:42:02.000Z</time>
      </trkpt>
      <trkpt lat="44.34087" lon="0.86957">
        <ele>211.6</ele>
        <time>2025-04-10T14:42:09.000Z</time>
      </trkpt>
      <trkpt lat="44.3408" lon="0.86948">
        <ele>211.7</ele>
        <time>2025-04-10T14:42:15.000Z</time>
      </trkpt>
      <trkpt lat="44.34072" lon="0.86942">
        <ele>211.7</ele>
        <time>2025-04-10T14:42:23.000Z</time>
      </trkpt>
      <trkpt lat="44.34064" lon="0.86932">
        <ele>211.9</ele>
        <time>2025-04-10T14:42:32.000Z</time>
      </trkpt>
      <trkpt lat="44.34058" lon="0.86922">
        <ele>212.5</ele>
        <time>2025-04-10T14:42:40.000Z</time>
      </trkpt>
      <trkpt lat="44.34055" lon="0.86909">
        <ele>213.3</ele>
        <time>2025-04-10T14:42:48.000Z</time>
      </trkpt>
      <trkpt lat="44.34049" lon="0.86896">
        <ele>213.7</ele>
        <time>2025-04-10T14:42:56.000Z</time>
      </trkpt>
      <trkpt lat="44.34044" lon="0.86885">
        <ele>214.2</ele>
        <time>2025-04-10T14:43:04.000Z</time>
      </trkpt>
      <trkpt lat="44.34036" lon="0.86875">
        <ele>214.5</ele>
        <time>2025-04-10T14:43:11.000Z</time>
      </trkpt>
      <trkpt lat="44.34029" lon="0.86865">
        <ele>214.8</ele>
        <time>2025-04-10T14:43:19.000Z</time>
      </trkpt>
      <trkpt lat="44.34021" lon="0.86858">
        <ele>215.2</ele>
        <time>2025-04-10T14:43:26.000Z</time>
      </trkpt>
      <trkpt lat="44.34011" lon="0.86854">
        <ele>215.4</ele>
        <time>2025-04-10T14:43:35.000Z</time>
      </trkpt>
      <trkpt lat="44.34001" lon="0.86852">
        <ele>215.3</ele>
        <time>2025-04-10T14:43:44.000Z</time>
      </trkpt>
      <trkpt lat="44.33992" lon="0.86853">
        <ele>215.6</ele>
        <time>2025-04-10T14:43:50.000Z</time>
      </trkpt>
      <trkpt lat="44.33982" lon="0.86855">
        <ele>215.9</ele>
        <time>2025-04-10T14:43:59.000Z</time>
      </trkpt>
      <trkpt lat="44.33973" lon="0.86859">
        <ele>216.1</ele>
        <time>2025-04-10T14:44:07.000Z</time>
      </trkpt>
      <trkpt lat="44.33966" lon="0.86868">
        <ele>215.6</ele>
        <time>2025-04-10T14:44:16.000Z</time>
      </trkpt>
      <trkpt lat="44.33956" lon="0.86871">
        <ele>215.5</ele>
        <time>2025-04-10T14:44:27.000Z</time>
      </trkpt>
      <trkpt lat="44.33947" lon="0.86875">
        <ele>215.5</ele>
        <time>2025-04-10T14:44:35.000Z</time>
      </trkpt>
      <trkpt lat="44.33938" lon="0.86877">
        <ele>215.5</ele>
        <time>2025-04-10T14:44:44.000Z</time>
      </trkpt>
      <trkpt lat="44.33929" lon="0.8688">
        <ele>215.5</ele>
        <time>2025-04-10T14:44:51.000Z</time>
      </trkpt>
      <trkpt lat="44.33919" lon="0.8688">
        <ele>215.7</ele>
        <time>2025-04-10T14:45:02.000Z</time>
      </trkpt>
      <trkpt lat="44.3391" lon="0.86879">
        <ele>215.5</ele>
        <time>2025-04-10T14:45:10.000Z</time>
      </trkpt>
      <trkpt lat="44.33905" lon="0.86869">
        <ele>215.2</ele>
        <time>2025-04-10T14:45:28.000Z</time>
      </trkpt>
    </trkseg>
  </trk>
</gpx>